Observation data for Fort Lewis CO on 08/14/2019      Previous  Date  Next       Current Mesonet Observations  Soil Data  Daily Summary Page  Observations in Plain Language
KFL1 140500Z 02007KT 13/03 A3043 RMK A01 T01260027  RH  051%=      5-min Rain = 0
KFL1 140501Z 02009KT 12/03 A3043 RMK A01 T01240028  RH  052%=      5-min Rain = 0
KFL1 140502Z 02009KT 12/03 A3043 RMK A01 T01230027  RH  052%=      5-min Rain = 0
KFL1 140503Z 02008KT 12/03 A3043 RMK A01 T01230026  RH  051%=      5-min Rain = 0
KFL1 140504Z 02008KT 12/02 A3043 RMK A01 T01230022  RH  050%=      5-min Rain = 0
KFL1 140505Z 02008KT 12/02 A3043 RMK A01 T01240022  RH  050%=      5-min Rain = 0
KFL1 140506Z 02008KT 12/02 A3043 RMK A01 T01240022  RH  050%=      5-min Rain = 0
KFL1 140507Z 02008KT 13/02 A3043 RMK A01 T01250024  RH  050%=      5-min Rain = 0
KFL1 140508Z 02008KT 13/03 A3043 RMK A01 T01250027  RH  051%=      5-min Rain = 0
KFL1 140509Z 02009KT 12/03 A3043 RMK A01 T01240027  RH  051%=      5-min Rain = 0
KFL1 140510Z 02008KT 12/03 A3043 RMK A01 T01240028  RH  052%=      5-min Rain = 0
KFL1 140524Z 03007KT 14/01 A3043 RMK A01 T01380006  RH  040%=      5-min Rain = 0
KFL1 140525Z 03006KT 14/01 A3043 RMK A01 T01390006  RH  040%=      5-min Rain = 0
KFL1 140526Z 03007KT 14/01 A3043 RMK A01 T01390006  RH  040%=      5-min Rain = 0
KFL1 140527Z 03007KT 14/01 A3043 RMK A01 T01400007  RH  040%=      5-min Rain = 0
KFL1 140528Z 03007KT 14/01 A3043 RMK A01 T01400007  RH  040%=      5-min Rain = 0
KFL1 140529Z 03007KT 14/01 A3043 RMK A01 T01400008  RH  040%=      5-min Rain = 0
KFL1 140530Z 03007KT 14/01 A3043 RMK A01 T01390007  RH  040%=      5-min Rain = 0
KFL1 140531Z 03007KT 14/01 A3043 RMK A01 T01400008  RH  040%=      5-min Rain = 0
KFL1 140532Z 03007KT 14/01 A3043 RMK A01 T01400008  RH  040%=      5-min Rain = 0
KFL1 140533Z 03007KT 14/01 A3043 RMK A01 T01390005  RH  040%=      5-min Rain = 0
KFL1 140534Z 03007KT 14/01 A3043 RMK A01 T01400008  RH  041%=      5-min Rain = 0
KFL1 140535Z 03007KT 14/01 A3043 RMK A01 T01390008  RH  041%=      5-min Rain = 0
KFL1 140536Z 03007KT 14/02 A3043 RMK A01 T01400016  RH  043%=      5-min Rain = 0
KFL1 140537Z 02008KT 14/02 A3043 RMK A01 T01380018  RH  044%=      5-min Rain = 0
KFL1 140538Z 02009KT 13/02 A3043 RMK A01 T01340016  RH  045%=      5-min Rain = 0
KFL1 140539Z 02007KT 13/02 A3043 RMK A01 T01340018  RH  045%=      5-min Rain = 0
KFL1 140540Z 02008KT 13/02 A3043 RMK A01 T01320020  RH  046%=      5-min Rain = 0
KFL1 140541Z 02007KT 13/03 A3043 RMK A01 T01300025  RH  049%=      5-min Rain = 0
KFL1 140542Z 02008KT 13/03 A3043 RMK A01 T01290028  RH  050%=      5-min Rain = 0
KFL1 140543Z 03008KT 13/02 A3043 RMK A01 T01260022  RH  049%=      5-min Rain = 0
KFL1 140544Z 03008KT 13/02 A3043 RMK A01 T01260016  RH  047%=      5-min Rain = 0
KFL1 140545Z 03007KT 13/01 A3043 RMK A01 T01300013  RH  045%=      5-min Rain = 0
KFL1 140546Z 03007KT 13/01 A3043 RMK A01 T01330013  RH  044%=      5-min Rain = 0
KFL1 140547Z 03007KT 13/02 A3043 RMK A01 T01320015  RH  045%=      5-min Rain = 0
KFL1 140548Z 03006KT 13/02 A3043 RMK A01 T01320017  RH  045%=      5-min Rain = 0
KFL1 140549Z 03006KT 13/02 A3043 RMK A01 T01330016  RH  045%=      5-min Rain = 0
KFL1 140550Z 03005KT 13/02 A3043 RMK A01 T01330018  RH  046%=      5-min Rain = 0
KFL1 140551Z 03007KT 13/02 A3043 RMK A01 T01310018  RH  046%=      5-min Rain = 0
KFL1 140552Z 03006KT 13/02 A3043 RMK A01 T01300015  RH  045%=      5-min Rain = 0
KFL1 140553Z 03006KT 13/01 A3043 RMK A01 T01310011  RH  044%=      5-min Rain = 0
KFL1 140554Z 03006KT 13/01 A3043 RMK A01 T01320011  RH  043%=      5-min Rain = 0
KFL1 140555Z 03006KT 13/01 A3043 RMK A01 T01330011  RH  043%=      5-min Rain = 0
KFL1 140556Z 03005KT 14/01 A3043 RMK A01 T01350012  RH  043%=      5-min Rain = 0
KFL1 140557Z 03006KT 14/01 A3043 RMK A01 T01360013  RH  043%=      5-min Rain = 0
KFL1 140558Z 03006KT 14/02 A3043 RMK A01 T01350016  RH  044%=      5-min Rain = 0
KFL1 140559Z 03005KT 13/02 A3043 RMK A01 T01340016  RH  044%=      5-min Rain = 0
KFL1 140600Z 02006KT 13/02 A3043 RMK A01 T01340017  RH  045%=      5-min Rain = 0
KFL1 140601Z 03007KT 13/02 A3043 RMK A01 T01320018  RH  046%=      5-min Rain = 0
KFL1 140602Z 03006KT 13/02 A3043 RMK A01 T01310019  RH  046%=      5-min Rain = 0
KFL1 140603Z 03007KT 13/02 A3043 RMK A01 T01310021  RH  047%=      5-min Rain = 0
KFL1 140604Z 03006KT 13/02 A3043 RMK A01 T01290021  RH  048%=      5-min Rain = 0
KFL1 140605Z 03006KT 13/02 A3043 RMK A01 T01280021  RH  048%=      5-min Rain = 0
KFL1 140606Z 03006KT 13/02 A3043 RMK A01 T01260021  RH  049%=      5-min Rain = 0
KFL1 140607Z 03006KT 13/02 A3043 RMK A01 T01290022  RH  048%=      5-min Rain = 0
KFL1 140608Z 03007KT 13/02 A3043 RMK A01 T01270022  RH  049%=      5-min Rain = 0
KFL1 140609Z 03006KT 13/02 A3043 RMK A01 T01270020  RH  048%=      5-min Rain = 0
KFL1 140610Z 03006KT 13/02 A3043 RMK A01 T01270019  RH  048%=      5-min Rain = 0
KFL1 140611Z 03005KT 13/02 A3043 RMK A01 T01270022  RH  049%=      5-min Rain = 0
KFL1 140612Z 03006KT 13/02 A3043 RMK A01 T01270022  RH  049%=      5-min Rain = 0
KFL1 140613Z 03006KT 13/02 A3043 RMK A01 T01260018  RH  047%=      5-min Rain = 0
KFL1 140614Z 03006KT 13/02 A3043 RMK A01 T01280017  RH  047%=      5-min Rain = 0
KFL1 140615Z 03006KT 13/02 A3043 RMK A01 T01280016  RH  046%=      5-min Rain = 0
KFL1 140616Z 03006KT 13/02 A3043 RMK A01 T01290017  RH  047%=      5-min Rain = 0
KFL1 140617Z 03006KT 13/02 A3043 RMK A01 T01300017  RH  046%=      5-min Rain = 0
KFL1 140618Z 03005KT 13/02 A3043 RMK A01 T01300018  RH  046%=      5-min Rain = 0
KFL1 140619Z 03006KT 13/02 A3043 RMK A01 T01310020  RH  047%=      5-min Rain = 0
KFL1 140620Z 03006KT 13/02 A3043 RMK A01 T01300021  RH  047%=      5-min Rain = 0
KFL1 140621Z 03006KT 13/02 A3043 RMK A01 T01320023  RH  047%=      5-min Rain = 0
KFL1 140622Z 03006KT 13/02 A3043 RMK A01 T01290022  RH  048%=      5-min Rain = 0
KFL1 140623Z 03006KT 13/02 A3043 RMK A01 T01290024  RH  049%=      5-min Rain = 0
KFL1 140624Z 03005KT 13/02 A3043 RMK A01 T01260024  RH  050%=      5-min Rain = 0
KFL1 140625Z 02006KT 13/02 A3043 RMK A01 T01260024  RH  050%=      5-min Rain = 0
KFL1 140626Z 02006KT 13/02 A3043 RMK A01 T01260022  RH  049%=      5-min Rain = 0
KFL1 140627Z 03006KT 13/02 A3043 RMK A01 T01260019  RH  048%=      5-min Rain = 0
KFL1 140628Z 03006KT 13/02 A3043 RMK A01 T01280019  RH  047%=      5-min Rain = 0
KFL1 140629Z 03006KT 13/02 A3043 RMK A01 T01300019  RH  047%=      5-min Rain = 0
KFL1 140630Z 03006KT 13/02 A3043 RMK A01 T01310018  RH  046%=      5-min Rain = 0
KFL1 140631Z 04006KT 13/02 A3043 RMK A01 T01310018  RH  046%=      5-min Rain = 0
KFL1 140632Z 03005KT 13/02 A3043 RMK A01 T01330020  RH  046%=      5-min Rain = 0
KFL1 140633Z 04005KT 13/02 A3043 RMK A01 T01340020  RH  046%=      5-min Rain = 0
KFL1 140634Z 03005KT 13/02 A3043 RMK A01 T01340019  RH  046%=      5-min Rain = 0
KFL1 140635Z 03005KT 14/02 A3043 RMK A01 T01350019  RH  045%=      5-min Rain = 0
KFL1 140636Z 03005KT 14/02 A3043 RMK A01 T01350022  RH  046%=      5-min Rain = 0
KFL1 140637Z 03005KT 14/03 A3043 RMK A01 T01360027  RH  047%=      5-min Rain = 0
KFL1 140638Z 03006KT 13/03 A3043 RMK A01 T01340025  RH  048%=      5-min Rain = 0
KFL1 140639Z 03006KT 13/03 A3043 RMK A01 T01330025  RH  048%=      5-min Rain = 0
KFL1 140640Z 03006KT 13/02 A3043 RMK A01 T01320022  RH  047%=      5-min Rain = 0
KFL1 140641Z 03006KT 13/02 A3043 RMK A01 T01320020  RH  047%=      5-min Rain = 0
KFL1 140642Z 04006KT 13/02 A3043 RMK A01 T01340020  RH  046%=      5-min Rain = 0
KFL1 140643Z 04007KT 14/02 A3043 RMK A01 T01350020  RH  046%=      5-min Rain = 0
KFL1 140644Z 04007KT 14/02 A3043 RMK A01 T01350020  RH  046%=      5-min Rain = 0
KFL1 140645Z 04008KT 14/02 A3043 RMK A01 T01360021  RH  046%=      5-min Rain = 0
KFL1 140646Z 04008KT 14/02 A3043 RMK A01 T01370024  RH  046%=      5-min Rain = 0
KFL1 140647Z 04007KT 14/02 A3043 RMK A01 T01360024  RH  047%=      5-min Rain = 0
KFL1 140648Z 03007KT 14/02 A3043 RMK A01 T01360024  RH  047%=      5-min Rain = 0
KFL1 140649Z 03006KT 14/02 A3043 RMK A01 T01370024  RH  046%=      5-min Rain = 0
KFL1 140650Z 03006KT 14/02 A3043 RMK A01 T01370023  RH  046%=      5-min Rain = 0
KFL1 140651Z 03006KT 14/02 A3043 RMK A01 T01370022  RH  046%=      5-min Rain = 0
KFL1 140652Z 03006KT 14/02 A3043 RMK A01 T01370021  RH  045%=      5-min Rain = 0
KFL1 140653Z 04006KT 14/02 A3043 RMK A01 T01380022  RH  045%=      5-min Rain = 0
KFL1 140654Z 03006KT 14/02 A3043 RMK A01 T01370021  RH  046%=      5-min Rain = 0
KFL1 140655Z 04006KT 14/02 A3043 RMK A01 T01380023  RH  046%=      5-min Rain = 0
KFL1 140656Z 03006KT 14/02 A3043 RMK A01 T01360022  RH  046%=      5-min Rain = 0
KFL1 140657Z 03006KT 14/02 A3043 RMK A01 T01370022  RH  046%=      5-min Rain = 0
KFL1 140658Z 04006KT 14/02 A3043 RMK A01 T01370024  RH  046%=      5-min Rain = 0
KFL1 140659Z 04006KT 14/02 A3043 RMK A01 T01360024  RH  047%=      5-min Rain = 0
KFL1 140700Z 04007KT 14/03 A3043 RMK A01 T01350025  RH  047%=      5-min Rain = 0
KFL1 140701Z 04008KT 14/03 A3043 RMK A01 T01350025  RH  047%=      5-min Rain = 0
KFL1 140702Z 04008KT 13/02 A3043 RMK A01 T01330024  RH  048%=      5-min Rain = 0
KFL1 140703Z 04008KT 13/03 A3043 RMK A01 T01330025  RH  048%=      5-min Rain = 0
KFL1 140704Z 04008KT 13/03 A3043 RMK A01 T01330026  RH  048%=      5-min Rain = 0
KFL1 140705Z 04008KT 13/03 A3043 RMK A01 T01330025  RH  048%=      5-min Rain = 0
KFL1 140706Z 04009KT 13/02 A3043 RMK A01 T01330024  RH  048%=      5-min Rain = 0
KFL1 140707Z 04009KT 13/02 A3043 RMK A01 T01330024  RH  048%=      5-min Rain = 0
KFL1 140708Z 04008KT 13/02 A3043 RMK A01 T01330024  RH  047%=      5-min Rain = 0
KFL1 140709Z 04008KT 13/02 A3043 RMK A01 T01330024  RH  047%=      5-min Rain = 0
KFL1 140710Z 04009KT 13/02 A3043 RMK A01 T01330023  RH  047%=      5-min Rain = 0
KFL1 140711Z 05009KT 13/02 A3043 RMK A01 T01330023  RH  047%=      5-min Rain = 0
KFL1 140712Z 05010KT 13/02 A3043 RMK A01 T01330023  RH  047%=      5-min Rain = 0
KFL1 140713Z 04010KT 13/02 A3043 RMK A01 T01320021  RH  047%=      5-min Rain = 0
KFL1 140714Z 04010KT 13/02 A3043 RMK A01 T01330021  RH  047%=      5-min Rain = 0
KFL1 140715Z 04010KT 13/02 A3043 RMK A01 T01340021  RH  046%=      5-min Rain = 0
KFL1 140716Z 04010KT 14/02 A3043 RMK A01 T01350022  RH  046%=      5-min Rain = 0
KFL1 140717Z 04010KT 14/02 A3043 RMK A01 T01360023  RH  046%=      5-min Rain = 0
KFL1 140718Z 04010KT 14/02 A3043 RMK A01 T01350021  RH  046%=      5-min Rain = 0
KFL1 140719Z 04010KT 14/02 A3043 RMK A01 T01360023  RH  046%=      5-min Rain = 0
KFL1 140720Z 04009KT 14/02 A3043 RMK A01 T01350022  RH  046%=      5-min Rain = 0
KFL1 140721Z 04009KT 14/02 A3043 RMK A01 T01360023  RH  046%=      5-min Rain = 0
KFL1 140722Z 04008KT 14/02 A3043 RMK A01 T01360023  RH  046%=      5-min Rain = 0
KFL1 140723Z 03008KT 14/02 A3043 RMK A01 T01360022  RH  046%=      5-min Rain = 0
KFL1 140724Z 04008KT 14/02 A3043 RMK A01 T01370023  RH  046%=      5-min Rain = 0
KFL1 140725Z 03008KT 14/02 A3043 RMK A01 T01360022  RH  046%=      5-min Rain = 0
KFL1 140726Z 03007KT 14/02 A3043 RMK A01 T01370022  RH  046%=      5-min Rain = 0
KFL1 140727Z 03007KT 14/02 A3043 RMK A01 T01360021  RH  046%=      5-min Rain = 0
KFL1 140728Z 03007KT 14/02 A3043 RMK A01 T01360021  RH  045%=      5-min Rain = 0
KFL1 140729Z 03007KT 14/02 A3043 RMK A01 T01370021  RH  045%=      5-min Rain = 0
KFL1 140730Z 02006KT 14/03 A3043 RMK A01 T01370025  RH  047%=      5-min Rain = 0
KFL1 140731Z 02007KT 13/03 A3043 RMK A01 T01340028  RH  048%=      5-min Rain = 0
KFL1 140732Z 02007KT 13/03 A3043 RMK A01 T01300031  RH  051%=      5-min Rain = 0
KFL1 140733Z 02008KT 13/03 A3043 RMK A01 T01260034  RH  053%=      5-min Rain = 0
KFL1 140734Z 02009KT 12/03 A3043 RMK A01 T01230034  RH  055%=      5-min Rain = 0
KFL1 140735Z 02009KT 12/03 A3043 RMK A01 T01210034  RH  055%=      5-min Rain = 0
KFL1 140736Z 02009KT 12/03 A3043 RMK A01 T01200034  RH  056%=      5-min Rain = 0
KFL1 140737Z 02009KT 12/03 A3043 RMK A01 T01190034  RH  056%=      5-min Rain = 0
KFL1 140738Z 02009KT 12/04 A3043 RMK A01 T01200035  RH  056%=      5-min Rain = 0
KFL1 140739Z 02009KT 12/03 A3043 RMK A01 T01190034  RH  056%=      5-min Rain = 0
KFL1 140740Z 02008KT 12/04 A3043 RMK A01 T01200036  RH  056%=      5-min Rain = 0
KFL1 140741Z 02008KT 12/04 A3043 RMK A01 T01190036  RH  057%=      5-min Rain = 0
KFL1 140742Z 02009KT 12/04 A3043 RMK A01 T01190035  RH  056%=      5-min Rain = 0
KFL1 140743Z 02009KT 12/03 A3043 RMK A01 T01190033  RH  056%=      5-min Rain = 0
KFL1 140744Z 02009KT 12/04 A3043 RMK A01 T01200035  RH  056%=      5-min Rain = 0
KFL1 140745Z 02009KT 12/04 A3043 RMK A01 T01200036  RH  056%=      5-min Rain = 0
KFL1 140746Z 02008KT 12/04 A3043 RMK A01 T01200035  RH  056%=      5-min Rain = 0
KFL1 140747Z 02008KT 12/03 A3043 RMK A01 T01190034  RH  056%=      5-min Rain = 0
KFL1 140748Z 02008KT 12/04 A3043 RMK A01 T01210035  RH  056%=      5-min Rain = 0
KFL1 140749Z 02008KT 12/03 A3043 RMK A01 T01210031  RH  054%=      5-min Rain = 0
KFL1 140750Z 03007KT 12/03 A3043 RMK A01 T01240029  RH  052%=      5-min Rain = 0
KFL1 140751Z 03007KT 13/03 A3043 RMK A01 T01250027  RH  051%=      5-min Rain = 0
KFL1 140752Z 03007KT 13/03 A3043 RMK A01 T01280028  RH  050%=      5-min Rain = 0
KFL1 140753Z 03007KT 13/03 A3043 RMK A01 T01280026  RH  050%=      5-min Rain = 0
KFL1 140754Z 03006KT 13/02 A3043 RMK A01 T01290023  RH  048%=      5-min Rain = 0
KFL1 140755Z 03007KT 13/02 A3043 RMK A01 T01300019  RH  047%=      5-min Rain = 0
KFL1 140756Z 03006KT 13/02 A3043 RMK A01 T01320020  RH  047%=      5-min Rain = 0
KFL1 140757Z 03006KT 13/02 A3043 RMK A01 T01320023  RH  047%=      5-min Rain = 0
KFL1 140758Z 03007KT 13/02 A3043 RMK A01 T01310023  RH  048%=      5-min Rain = 0
KFL1 140759Z 03006KT 13/02 A3043 RMK A01 T01300024  RH  049%=      5-min Rain = 0
KFL1 140800Z 03006KT 13/02 A3043 RMK A01 T01300023  RH  048%=      5-min Rain = 0
KFL1 140801Z 03006KT 13/03 A3043 RMK A01 T01280026  RH  050%=      5-min Rain = 0
KFL1 140802Z 02006KT 13/03 A3043 RMK A01 T01260031  RH  052%=      5-min Rain = 0
KFL1 140803Z 02006KT 12/03 A3043 RMK A01 T01240034  RH  054%=      5-min Rain = 0
KFL1 140804Z 02008KT 12/04 A3043 RMK A01 T01220035  RH  055%=      5-min Rain = 0
KFL1 140805Z 02009KT 12/03 A3042 RMK A01 T01190034  RH  056%=      5-min Rain = 0
KFL1 140806Z 03008KT 12/03 A3042 RMK A01 T01190033  RH  056%=      5-min Rain = 0
KFL1 140807Z 03007KT 12/03 A3042 RMK A01 T01180030  RH  055%=      5-min Rain = 0
KFL1 140808Z 03007KT 12/03 A3042 RMK A01 T01200030  RH  054%=      5-min Rain = 0
KFL1 140809Z 03005KT 12/02 A3042 RMK A01 T01200024  RH  052%=      5-min Rain = 0
KFL1 140810Z 03006KT 12/02 A3042 RMK A01 T01230020  RH  049%=      5-min Rain = 0
KFL1 140811Z 03006KT 13/02 A3042 RMK A01 T01260019  RH  048%=      5-min Rain = 0
KFL1 140812Z 03005KT 13/02 A3043 RMK A01 T01280019  RH  047%=      5-min Rain = 0
KFL1 140813Z 03006KT 13/02 A3043 RMK A01 T01300020  RH  047%=      5-min Rain = 0
KFL1 140814Z 03006KT 13/02 A3043 RMK A01 T01300020  RH  047%=      5-min Rain = 0
KFL1 140815Z 03006KT 13/02 A3043 RMK A01 T01320021  RH  047%=      5-min Rain = 0
KFL1 140816Z 03006KT 13/02 A3043 RMK A01 T01320020  RH  047%=      5-min Rain = 0
KFL1 140817Z 03007KT 13/02 A3043 RMK A01 T01340021  RH  046%=      5-min Rain = 0
KFL1 140818Z 02007KT 13/02 A3043 RMK A01 T01340020  RH  046%=      5-min Rain = 0
KFL1 140819Z 02006KT 13/02 A3043 RMK A01 T01340020  RH  046%=      5-min Rain = 0
KFL1 140820Z 02007KT 13/03 A3043 RMK A01 T01330029  RH  049%=      5-min Rain = 0
KFL1 140821Z 01009KT 13/03 A3043 RMK A01 T01290033  RH  052%=      5-min Rain = 0
KFL1 140822Z 01009KT 13/03 A3043 RMK A01 T01250033  RH  053%=      5-min Rain = 0
KFL1 140823Z 01009KT 12/04 A3043 RMK A01 T01220035  RH  055%=      5-min Rain = 0
KFL1 140824Z 01009KT 12/04 A3043 RMK A01 T01190035  RH  056%=      5-min Rain = 0
KFL1 140825Z 01009KT 12/04 A3043 RMK A01 T01170036  RH  057%=      5-min Rain = 0
KFL1 140826Z 01009KT 12/04 A3043 RMK A01 T01160035  RH  058%=      5-min Rain = 0
KFL1 140827Z 01009KT 12/04 A3043 RMK A01 T01150036  RH  058%=      5-min Rain = 0
KFL1 140828Z 01009KT 12/04 A3043 RMK A01 T01150035  RH  058%=      5-min Rain = 0
KFL1 140829Z 01009KT 12/04 A3043 RMK A01 T01160035  RH  058%=      5-min Rain = 0
KFL1 140830Z 01009KT 12/04 A3043 RMK A01 T01160035  RH  057%=      5-min Rain = 0
KFL1 140831Z 01009KT 12/03 A3043 RMK A01 T01160034  RH  057%=      5-min Rain = 0
KFL1 140832Z 01009KT 12/04 A3043 RMK A01 T01170035  RH  057%=      5-min Rain = 0
KFL1 140833Z 02008KT 12/03 A3043 RMK A01 T01170034  RH  057%=      5-min Rain = 0
KFL1 140834Z 02008KT 12/04 A3043 RMK A01 T01180035  RH  057%=      5-min Rain = 0
KFL1 140835Z 02009KT 12/03 A3043 RMK A01 T01180033  RH  056%=      5-min Rain = 0
KFL1 140836Z 03007KT 12/03 A3043 RMK A01 T01190034  RH  056%=      5-min Rain = 0
KFL1 140837Z 04007KT 12/03 A3043 RMK A01 T01190026  RH  053%=      5-min Rain = 0
KFL1 140838Z 04006KT 12/02 A3043 RMK A01 T01230020  RH  049%=      5-min Rain = 0
KFL1 140839Z 03005KT 13/02 A3043 RMK A01 T01270019  RH  048%=      5-min Rain = 0
KFL1 140840Z 03006KT 13/02 A3043 RMK A01 T01310020  RH  047%=      5-min Rain = 0
KFL1 140841Z 03005KT 13/02 A3043 RMK A01 T01310021  RH  047%=      5-min Rain = 0
KFL1 140842Z 03005KT 13/02 A3043 RMK A01 T01310024  RH  048%=      5-min Rain = 0
KFL1 140843Z 03006KT 13/03 A3043 RMK A01 T01310028  RH  050%=      5-min Rain = 0
KFL1 140844Z 02006KT 13/03 A3043 RMK A01 T01280032  RH  052%=      5-min Rain = 0
KFL1 140845Z 03006KT 12/03 A3043 RMK A01 T01240034  RH  054%=      5-min Rain = 0
KFL1 140846Z 03005KT 12/03 A3043 RMK A01 T01200034  RH  056%=      5-min Rain = 0
KFL1 140847Z 03004KT 12/03 A3043 RMK A01 T01180031  RH  055%=      5-min Rain = 0
KFL1 140848Z 03005KT 12/04 A3043 RMK A01 T01190035  RH  056%=      5-min Rain = 0
KFL1 140849Z 03005KT 12/04 A3042 RMK A01 T01180037  RH  058%=      5-min Rain = 0
KFL1 140850Z 03004KT 11/04 A3042 RMK A01 T01140036  RH  058%=      5-min Rain = 0
KFL1 140851Z 03005KT 12/04 A3042 RMK A01 T01150037  RH  059%=      5-min Rain = 0
KFL1 140852Z 03006KT 11/04 A3042 RMK A01 T01140035  RH  058%=      5-min Rain = 0
KFL1 140853Z 03005KT 12/04 A3042 RMK A01 T01150035  RH  058%=      5-min Rain = 0
KFL1 140854Z 03006KT 11/03 A3042 RMK A01 T01140033  RH  058%=      5-min Rain = 0
KFL1 140855Z 03006KT 11/03 A3042 RMK A01 T01140029  RH  056%=      5-min Rain = 0
KFL1 140856Z 03006KT 12/02 A3042 RMK A01 T01160024  RH  053%=      5-min Rain = 0
KFL1 140857Z 03006KT 12/02 A3042 RMK A01 T01190019  RH  050%=      5-min Rain = 0
KFL1 140858Z 03006KT 13/02 A3042 RMK A01 T01250020  RH  049%=      5-min Rain = 0
KFL1 140859Z 03006KT 13/02 A3042 RMK A01 T01270019  RH  048%=      5-min Rain = 0
KFL1 140900Z 03006KT 13/02 A3042 RMK A01 T01300019  RH  047%=      5-min Rain = 0
KFL1 140901Z 03006KT 13/02 A3042 RMK A01 T01320020  RH  047%=      5-min Rain = 0
KFL1 140902Z 03006KT 13/02 A3042 RMK A01 T01330023  RH  047%=      5-min Rain = 0
KFL1 140903Z 03006KT 13/03 A3042 RMK A01 T01310025  RH  049%=      5-min Rain = 0
KFL1 140904Z 03005KT 13/03 A3042 RMK A01 T01290028  RH  050%=      5-min Rain = 0
KFL1 140905Z 03005KT 13/03 A3042 RMK A01 T01260026  RH  050%=      5-min Rain = 0
KFL1 140906Z 03005KT 13/03 A3042 RMK A01 T01270028  RH  051%=      5-min Rain = 0
KFL1 140907Z 03005KT 13/04 A3042 RMK A01 T01270035  RH  053%=      5-min Rain = 0
KFL1 140908Z 03005KT 12/04 A3042 RMK A01 T01230035  RH  055%=      5-min Rain = 0
KFL1 140909Z 03005KT 12/03 A3042 RMK A01 T01200033  RH  055%=      5-min Rain = 0
KFL1 140910Z 03005KT 12/03 A3042 RMK A01 T01190034  RH  056%=      5-min Rain = 0
KFL1 140911Z 03005KT 12/03 A3042 RMK A01 T01180032  RH  056%=      5-min Rain = 0
KFL1 140912Z 03006KT 12/03 A3042 RMK A01 T01180031  RH  055%=      5-min Rain = 0
KFL1 140913Z 03005KT 12/03 A3042 RMK A01 T01170032  RH  056%=      5-min Rain = 0
KFL1 140914Z 03005KT 12/03 A3042 RMK A01 T01180030  RH  055%=      5-min Rain = 0
KFL1 140915Z 03005KT 12/03 A3042 RMK A01 T01170031  RH  056%=      5-min Rain = 0
KFL1 140916Z 03006KT 12/03 A3042 RMK A01 T01190034  RH  056%=      5-min Rain = 0
KFL1 140917Z 03006KT 12/03 A3042 RMK A01 T01170034  RH  057%=      5-min Rain = 0
KFL1 140918Z 03006KT 12/03 A3042 RMK A01 T01160032  RH  056%=      5-min Rain = 0
KFL1 140919Z 03005KT 12/03 A3042 RMK A01 T01160030  RH  055%=      5-min Rain = 0
KFL1 140920Z 03006KT 12/03 A3042 RMK A01 T01160028  RH  055%=      5-min Rain = 0
KFL1 140921Z 03006KT 12/03 A3042 RMK A01 T01170031  RH  055%=      5-min Rain = 0
KFL1 140922Z 03005KT 12/03 A3042 RMK A01 T01170032  RH  056%=      5-min Rain = 0
KFL1 140923Z 03005KT 12/03 A3042 RMK A01 T01160030  RH  055%=      5-min Rain = 0
KFL1 140924Z 03006KT 12/03 A3042 RMK A01 T01160026  RH  054%=      5-min Rain = 0
KFL1 140925Z 03006KT 12/03 A3042 RMK A01 T01160028  RH  055%=      5-min Rain = 0
KFL1 140926Z 03006KT 12/03 A3042 RMK A01 T01170030  RH  055%=      5-min Rain = 0
KFL1 140927Z 04006KT 12/03 A3042 RMK A01 T01180030  RH  055%=      5-min Rain = 0
KFL1 140928Z 03006KT 12/02 A3042 RMK A01 T01180024  RH  052%=      5-min Rain = 0
KFL1 140929Z 03006KT 12/02 A3042 RMK A01 T01200023  RH  051%=      5-min Rain = 0
KFL1 140930Z 04006KT 12/02 A3042 RMK A01 T01210023  RH  051%=      5-min Rain = 0
KFL1 140931Z 04006KT 12/02 A3042 RMK A01 T01230021  RH  050%=      5-min Rain = 0
KFL1 140932Z 03006KT 12/02 A3042 RMK A01 T01240020  RH  049%=      5-min Rain = 0
KFL1 140933Z 03006KT 13/02 A3042 RMK A01 T01260021  RH  049%=      5-min Rain = 0
KFL1 140934Z 03005KT 13/02 A3042 RMK A01 T01270022  RH  049%=      5-min Rain = 0
KFL1 140935Z 03005KT 13/03 A3042 RMK A01 T01260030  RH  052%=      5-min Rain = 0
KFL1 140936Z 03006KT 12/03 A3042 RMK A01 T01230032  RH  054%=      5-min Rain = 0
KFL1 140937Z 03006KT 12/03 A3042 RMK A01 T01180030  RH  055%=      5-min Rain = 0
KFL1 140938Z 03005KT 12/03 A3042 RMK A01 T01170030  RH  055%=      5-min Rain = 0
KFL1 140939Z 04006KT 12/03 A3042 RMK A01 T01160026  RH  054%=      5-min Rain = 0
KFL1 140940Z 04006KT 12/03 A3042 RMK A01 T01180025  RH  053%=      5-min Rain = 0
KFL1 140941Z 04007KT 12/02 A3042 RMK A01 T01200023  RH  051%=      5-min Rain = 0
KFL1 140942Z 04007KT 12/02 A3042 RMK A01 T01230023  RH  050%=      5-min Rain = 0
KFL1 140943Z 04007KT 13/02 A3042 RMK A01 T01250024  RH  050%=      5-min Rain = 0
KFL1 140944Z 04007KT 13/03 A3042 RMK A01 T01260025  RH  050%=      5-min Rain = 0
KFL1 140945Z 05008KT 13/03 A3042 RMK A01 T01270025  RH  050%=      5-min Rain = 0
KFL1 140946Z 04008KT 13/03 A3042 RMK A01 T01270025  RH  050%=      5-min Rain = 0
KFL1 140947Z 04008KT 13/03 A3042 RMK A01 T01280026  RH  050%=      5-min Rain = 0
KFL1 140948Z 04008KT 13/03 A3042 RMK A01 T01270025  RH  050%=      5-min Rain = 0
KFL1 140949Z 04009KT 13/02 A3042 RMK A01 T01270024  RH  050%=      5-min Rain = 0
KFL1 140950Z 04009KT 13/02 A3042 RMK A01 T01270023  RH  049%=      5-min Rain = 0
KFL1 140951Z 04008KT 13/03 A3042 RMK A01 T01290025  RH  049%=      5-min Rain = 0
KFL1 140952Z 03007KT 13/02 A3042 RMK A01 T01300024  RH  049%=      5-min Rain = 0
KFL1 140953Z 03007KT 13/02 A3042 RMK A01 T01310023  RH  048%=      5-min Rain = 0
KFL1 140954Z 03007KT 13/02 A3042 RMK A01 T01310023  RH  048%=      5-min Rain = 0
KFL1 140955Z 03007KT 13/02 A3042 RMK A01 T01320022  RH  047%=      5-min Rain = 0
KFL1 140956Z 03007KT 13/02 A3042 RMK A01 T01320021  RH  047%=      5-min Rain = 0
KFL1 140957Z 02008KT 13/02 A3042 RMK A01 T01320020  RH  047%=      5-min Rain = 0
KFL1 140958Z 03007KT 13/02 A3042 RMK A01 T01340021  RH  046%=      5-min Rain = 0
KFL1 140959Z 03006KT 13/02 A3042 RMK A01 T01340021  RH  046%=      5-min Rain = 0
KFL1 141000Z 03007KT 13/02 A3042 RMK A01 T01330021  RH  047%=      5-min Rain = 0
KFL1 141001Z 03006KT 13/02 A3042 RMK A01 T01330021  RH  047%=      5-min Rain = 0
KFL1 141002Z 03006KT 13/02 A3042 RMK A01 T01330022  RH  047%=      5-min Rain = 0
KFL1 141003Z 03006KT 13/03 A3042 RMK A01 T01320026  RH  048%=      5-min Rain = 0
KFL1 141004Z 03006KT 13/03 A3042 RMK A01 T01310026  RH  049%=      5-min Rain = 0
KFL1 141005Z 03005KT 13/03 A3042 RMK A01 T01270030  RH  052%=      5-min Rain = 0
KFL1 141006Z 03006KT 12/03 A3042 RMK A01 T01230033  RH  054%=      5-min Rain = 0
KFL1 141007Z 03005KT 12/03 A3042 RMK A01 T01200034  RH  056%=      5-min Rain = 0
KFL1 141008Z 03005KT 12/03 A3042 RMK A01 T01180031  RH  055%=      5-min Rain = 0
KFL1 141009Z 03005KT 12/03 A3042 RMK A01 T01170031  RH  055%=      5-min Rain = 0
KFL1 141010Z 03004KT 12/04 A3042 RMK A01 T01160036  RH  058%=      5-min Rain = 0
KFL1 141011Z 03005KT 11/04 A3042 RMK A01 T01130035  RH  059%=      5-min Rain = 0
KFL1 141012Z 03004KT 11/03 A3042 RMK A01 T01140034  RH  058%=      5-min Rain = 0
KFL1 141013Z 03005KT 11/04 A3042 RMK A01 T01130036  RH  059%=      5-min Rain = 0
KFL1 141014Z 02005KT 11/04 A3042 RMK A01 T01110038  RH  061%=      5-min Rain = 0
KFL1 141015Z 03004KT 11/04 A3042 RMK A01 T01090039  RH  062%=      5-min Rain = 0
KFL1 141016Z 03004KT 11/04 A3042 RMK A01 T01060038  RH  062%=      5-min Rain = 0
KFL1 141017Z 02005KT 11/04 A3042 RMK A01 T01070037  RH  062%=      5-min Rain = 0
KFL1 141018Z 02006KT 11/04 A3042 RMK A01 T01070039  RH  063%=      5-min Rain = 0
KFL1 141019Z 02007KT 11/04 A3042 RMK A01 T01050038  RH  063%=      5-min Rain = 0
KFL1 141020Z 02008KT 10/03 A3042 RMK A01 T01040034  RH  062%=      5-min Rain = 0
KFL1 141021Z 02007KT 11/03 A3042 RMK A01 T01050032  RH  061%=      5-min Rain = 0
KFL1 141022Z 02008KT 11/03 A3042 RMK A01 T01080034  RH  060%=      5-min Rain = 0
KFL1 141023Z 02008KT 11/03 A3042 RMK A01 T01090034  RH  060%=      5-min Rain = 0
KFL1 141024Z 02008KT 11/04 A3042 RMK A01 T01100036  RH  060%=      5-min Rain = 0
KFL1 141025Z 02008KT 11/04 A3042 RMK A01 T01090036  RH  060%=      5-min Rain = 0
KFL1 141026Z 02009KT 11/03 A3042 RMK A01 T01080032  RH  060%=      5-min Rain = 0
KFL1 141027Z 02009KT 11/03 A3042 RMK A01 T01100034  RH  059%=      5-min Rain = 0
KFL1 141028Z 02008KT 11/03 A3042 RMK A01 T01090033  RH  060%=      5-min Rain = 0
KFL1 141029Z 02008KT 11/04 A3042 RMK A01 T01090035  RH  060%=      5-min Rain = 0
KFL1 141030Z 02008KT 11/04 A3042 RMK A01 T01090035  RH  060%=      5-min Rain = 0
KFL1 141031Z 02008KT 11/04 A3042 RMK A01 T01090036  RH  060%=      5-min Rain = 0
KFL1 141032Z 02008KT 11/03 A3042 RMK A01 T01080033  RH  059%=      5-min Rain = 0
KFL1 141033Z 02008KT 11/03 A3042 RMK A01 T01080031  RH  059%=      5-min Rain = 0
KFL1 141034Z 02008KT 11/03 A3042 RMK A01 T01090032  RH  059%=      5-min Rain = 0
KFL1 141035Z 02008KT 11/03 A3042 RMK A01 T01110034  RH  059%=      5-min Rain = 0
KFL1 141036Z 03007KT 11/03 A3042 RMK A01 T01100031  RH  058%=      5-min Rain = 0
KFL1 141037Z 03006KT 11/03 A3042 RMK A01 T01120029  RH  057%=      5-min Rain = 0
KFL1 141038Z 03007KT 11/03 A3042 RMK A01 T01140028  RH  056%=      5-min Rain = 0
KFL1 141039Z 02007KT 12/03 A3042 RMK A01 T01170031  RH  056%=      5-min Rain = 0
KFL1 141040Z 03007KT 12/03 A3042 RMK A01 T01160032  RH  057%=      5-min Rain = 0
KFL1 141041Z 03005KT 12/04 A3042 RMK A01 T01150035  RH  058%=      5-min Rain = 0
KFL1 141042Z 03004KT 11/03 A3042 RMK A01 T01120034  RH  058%=      5-min Rain = 0
KFL1 141043Z 03004KT 11/03 A3042 RMK A01 T01110034  RH  059%=      5-min Rain = 0
KFL1 141044Z 03005KT 11/04 A3042 RMK A01 T01100036  RH  060%=      5-min Rain = 0
KFL1 141045Z 03006KT 11/03 A3042 RMK A01 T01090034  RH  060%=      5-min Rain = 0
KFL1 141046Z 04006KT 11/03 A3042 RMK A01 T01090025  RH  056%=      5-min Rain = 0
KFL1 141047Z 04006KT 11/03 A3042 RMK A01 T01120025  RH  055%=      5-min Rain = 0
KFL1 141048Z 04007KT 11/02 A3042 RMK A01 T01130023  RH  054%=      5-min Rain = 0
KFL1 141049Z 03006KT 12/02 A3042 RMK A01 T01170022  RH  052%=      5-min Rain = 0
KFL1 141050Z 04006KT 12/02 A3042 RMK A01 T01190022  RH  051%=      5-min Rain = 0
KFL1 141051Z 04006KT 12/02 A3042 RMK A01 T01210023  RH  051%=      5-min Rain = 0
KFL1 141052Z 04005KT 12/03 A3042 RMK A01 T01230026  RH  051%=      5-min Rain = 0
KFL1 141053Z 04005KT 12/03 A3042 RMK A01 T01220027  RH  052%=      5-min Rain = 0
KFL1 141054Z 04005KT 12/03 A3042 RMK A01 T01200026  RH  053%=      5-min Rain = 0
KFL1 141055Z 04005KT 12/02 A3042 RMK A01 T01190024  RH  052%=      5-min Rain = 0
KFL1 141056Z 04005KT 12/02 A3042 RMK A01 T01190024  RH  052%=      5-min Rain = 0
KFL1 141057Z 04006KT 12/02 A3042 RMK A01 T01190024  RH  052%=      5-min Rain = 0
KFL1 141058Z 04006KT 12/02 A3042 RMK A01 T01190023  RH  052%=      5-min Rain = 0
KFL1 141059Z 05007KT 12/03 A3042 RMK A01 T01200026  RH  052%=      5-min Rain = 0
KFL1 141100Z 04007KT 12/03 A3042 RMK A01 T01200025  RH  052%=      5-min Rain = 0
KFL1 141101Z 05007KT 12/02 A3042 RMK A01 T01190024  RH  052%=      5-min Rain = 0
KFL1 141102Z 05008KT 12/03 A3042 RMK A01 T01210025  RH  052%=      5-min Rain = 0
KFL1 141103Z 04008KT 12/02 A3042 RMK A01 T01200024  RH  052%=      5-min Rain = 0
KFL1 141104Z 05008KT 12/02 A3042 RMK A01 T01200024  RH  052%=      5-min Rain = 0
KFL1 141105Z 04009KT 12/02 A3042 RMK A01 T01210024  RH  051%=      5-min Rain = 0
KFL1 141106Z 05010KT 12/02 A3042 RMK A01 T01210023  RH  051%=      5-min Rain = 0
KFL1 141107Z 05010KT 12/02 A3042 RMK A01 T01210023  RH  051%=      5-min Rain = 0
KFL1 141108Z 05010KT 12/02 A3042 RMK A01 T01220024  RH  051%=      5-min Rain = 0
KFL1 141109Z 05010KT 12/02 A3042 RMK A01 T01220023  RH  051%=      5-min Rain = 0
KFL1 141110Z 05010KT 12/02 A3042 RMK A01 T01210023  RH  051%=      5-min Rain = 0
KFL1 141111Z 05010KT 12/02 A3042 RMK A01 T01220023  RH  051%=      5-min Rain = 0
KFL1 141112Z 05010KT 12/02 A3042 RMK A01 T01220023  RH  051%=      5-min Rain = 0
KFL1 141113Z 05010KT 12/02 A3042 RMK A01 T01220023  RH  051%=      5-min Rain = 0
KFL1 141114Z 05010KT 12/02 A3042 RMK A01 T01220023  RH  051%=      5-min Rain = 0
KFL1 141115Z 05009KT 12/03 A3042 RMK A01 T01230025  RH  051%=      5-min Rain = 0
KFL1 141116Z 05009KT 12/02 A3042 RMK A01 T01220023  RH  051%=      5-min Rain = 0
KFL1 141117Z 05009KT 12/02 A3042 RMK A01 T01220024  RH  051%=      5-min Rain = 0
KFL1 141118Z 05009KT 12/02 A3042 RMK A01 T01220024  RH  051%=      5-min Rain = 0
KFL1 141119Z 05009KT 12/02 A3042 RMK A01 T01220024  RH  051%=      5-min Rain = 0
KFL1 141120Z 05009KT 12/02 A3042 RMK A01 T01220024  RH  051%=      5-min Rain = 0
KFL1 141121Z 05009KT 12/02 A3042 RMK A01 T01210023  RH  051%=      5-min Rain = 0
KFL1 141122Z 05008KT 12/03 A3042 RMK A01 T01230025  RH  051%=      5-min Rain = 0
KFL1 141123Z 05009KT 12/02 A3042 RMK A01 T01210023  RH  051%=      5-min Rain = 0
KFL1 141124Z 05008KT 12/02 A3042 RMK A01 T01210023  RH  051%=      5-min Rain = 0
KFL1 141125Z 05009KT 12/03 A3042 RMK A01 T01220025  RH  051%=      5-min Rain = 0
KFL1 141126Z 05008KT 12/03 A3042 RMK A01 T01220025  RH  051%=      5-min Rain = 0
KFL1 141127Z 05007KT 12/02 A3042 RMK A01 T01210024  RH  051%=      5-min Rain = 0
KFL1 141128Z 06008KT 12/02 A3042 RMK A01 T01210024  RH  052%=      5-min Rain = 0
KFL1 141129Z 05007KT 12/03 A3042 RMK A01 T01220025  RH  051%=      5-min Rain = 0
KFL1 141130Z 05008KT 12/03 A3042 RMK A01 T01220025  RH  051%=      5-min Rain = 0
KFL1 141131Z 06007KT 12/02 A3042 RMK A01 T01220024  RH  051%=      5-min Rain = 0
KFL1 141132Z 05007KT 12/02 A3042 RMK A01 T01220024  RH  051%=      5-min Rain = 0
KFL1 141133Z 06008KT 12/02 A3042 RMK A01 T01210023  RH  051%=      5-min Rain = 0
KFL1 141134Z 06007KT 12/02 A3042 RMK A01 T01210023  RH  051%=      5-min Rain = 0
KFL1 141135Z 05008KT 12/03 A3043 RMK A01 T01240025  RH  051%=      5-min Rain = 0
KFL1 141136Z 05008KT 12/02 A3043 RMK A01 T01230023  RH  051%=      5-min Rain = 0
KFL1 141137Z 06008KT 12/02 A3043 RMK A01 T01230024  RH  051%=      5-min Rain = 0
KFL1 141138Z 06008KT 12/02 A3043 RMK A01 T01240024  RH  050%=      5-min Rain = 0
KFL1 141139Z 06008KT 12/02 A3043 RMK A01 T01240024  RH  050%=      5-min Rain = 0
KFL1 141140Z 05007KT 12/02 A3043 RMK A01 T01240023  RH  050%=      5-min Rain = 0
KFL1 141141Z 06008KT 13/03 A3043 RMK A01 T01250025  RH  051%=      5-min Rain = 0
KFL1 141142Z 06007KT 12/02 A3043 RMK A01 T01240024  RH  051%=      5-min Rain = 0
KFL1 141143Z 06007KT 12/02 A3043 RMK A01 T01230024  RH  051%=      5-min Rain = 0
KFL1 141144Z 06007KT 12/02 A3043 RMK A01 T01230024  RH  051%=      5-min Rain = 0
KFL1 141145Z 06007KT 12/02 A3043 RMK A01 T01220024  RH  051%=      5-min Rain = 0
KFL1 141146Z 06007KT 12/03 A3043 RMK A01 T01240025  RH  051%=      5-min Rain = 0
KFL1 141147Z 06007KT 12/02 A3043 RMK A01 T01220024  RH  051%=      5-min Rain = 0
KFL1 141148Z 06007KT 12/02 A3043 RMK A01 T01220024  RH  051%=      5-min Rain = 0
KFL1 141149Z 06007KT 12/03 A3043 RMK A01 T01230025  RH  051%=      5-min Rain = 0
KFL1 141150Z 06007KT 12/03 A3043 RMK A01 T01230025  RH  051%=      5-min Rain = 0
KFL1 141151Z 06007KT 12/03 A3043 RMK A01 T01230025  RH  051%=      5-min Rain = 0
KFL1 141152Z 06007KT 12/02 A3043 RMK A01 T01210023  RH  051%=      5-min Rain = 0
KFL1 141153Z 06007KT 12/02 A3043 RMK A01 T01230024  RH  051%=      5-min Rain = 0
KFL1 141154Z 06008KT 12/02 A3043 RMK A01 T01220023  RH  051%=      5-min Rain = 0
KFL1 141155Z 06007KT 12/02 A3043 RMK A01 T01220023  RH  051%=      5-min Rain = 0
KFL1 141156Z 06007KT 12/02 A3043 RMK A01 T01230024  RH  051%=      5-min Rain = 0
KFL1 141157Z 06007KT 12/02 A3043 RMK A01 T01220023  RH  050%=      5-min Rain = 0
KFL1 141158Z 06007KT 12/02 A3043 RMK A01 T01240024  RH  050%=      5-min Rain = 0
KFL1 141159Z 06007KT 12/02 A3043 RMK A01 T01230024  RH  051%=      5-min Rain = 0
KFL1 141200Z 06008KT 12/02 A3043 RMK A01 T01240024  RH  050%=      5-min Rain = 0
KFL1 141201Z 06007KT 12/02 A3043 RMK A01 T01230022  RH  050%=      5-min Rain = 0
KFL1 141202Z 06007KT 12/02 A3043 RMK A01 T01240023  RH  050%=      5-min Rain = 0
KFL1 141203Z 07007KT 12/02 A3043 RMK A01 T01230022  RH  050%=      5-min Rain = 0
KFL1 141204Z 06007KT 12/02 A3043 RMK A01 T01240023  RH  050%=      5-min Rain = 0
KFL1 141205Z 06007KT 12/02 A3043 RMK A01 T01240023  RH  050%=      5-min Rain = 0
KFL1 141206Z 07007KT 13/02 A3043 RMK A01 T01250024  RH  050%=      5-min Rain = 0
KFL1 141207Z 07006KT 12/02 A3043 RMK A01 T01230023  RH  050%=      5-min Rain = 0
KFL1 141208Z 07007KT 12/02 A3043 RMK A01 T01220022  RH  050%=      5-min Rain = 0
KFL1 141209Z 07007KT 12/02 A3043 RMK A01 T01220023  RH  050%=      5-min Rain = 0
KFL1 141210Z 07006KT 12/02 A3043 RMK A01 T01230024  RH  051%=      5-min Rain = 0
KFL1 141211Z 07006KT 12/02 A3043 RMK A01 T01220023  RH  051%=      5-min Rain = 0
KFL1 141212Z 07006KT 12/02 A3044 RMK A01 T01210022  RH  051%=      5-min Rain = 0
KFL1 141213Z 07006KT 12/02 A3044 RMK A01 T01220022  RH  051%=      5-min Rain = 0
KFL1 141214Z 07006KT 12/02 A3044 RMK A01 T01210022  RH  051%=      5-min Rain = 0
KFL1 141215Z 07006KT 12/02 A3044 RMK A01 T01210022  RH  051%=      5-min Rain = 0
KFL1 141216Z 07006KT 12/02 A3044 RMK A01 T01200022  RH  051%=      5-min Rain = 0
KFL1 141217Z 07006KT 12/02 A3044 RMK A01 T01210022  RH  051%=      5-min Rain = 0
KFL1 141218Z 07006KT 12/02 A3044 RMK A01 T01200022  RH  051%=      5-min Rain = 0
KFL1 141219Z 07006KT 12/02 A3044 RMK A01 T01210023  RH  051%=      5-min Rain = 0
KFL1 141220Z 07006KT 12/02 A3044 RMK A01 T01200023  RH  051%=      5-min Rain = 0
KFL1 141221Z 08006KT 12/02 A3044 RMK A01 T01190021  RH  051%=      5-min Rain = 0
KFL1 141222Z 08006KT 12/02 A3044 RMK A01 T01190022  RH  051%=      5-min Rain = 0
KFL1 141223Z 08006KT 12/02 A3044 RMK A01 T01190021  RH  051%=      5-min Rain = 0
KFL1 141224Z 08006KT 12/02 A3044 RMK A01 T01180021  RH  051%=      5-min Rain = 0
KFL1 141225Z 08006KT 12/02 A3044 RMK A01 T01190021  RH  051%=      5-min Rain = 0
KFL1 141226Z 08006KT 12/02 A3044 RMK A01 T01180020  RH  051%=      5-min Rain = 0
KFL1 141227Z 08006KT 12/02 A3044 RMK A01 T01200021  RH  051%=      5-min Rain = 0
KFL1 141228Z 09005KT 12/02 A3044 RMK A01 T01200022  RH  051%=      5-min Rain = 0
KFL1 141229Z 09005KT 12/02 A3044 RMK A01 T01200022  RH  051%=      5-min Rain = 0
KFL1 141230Z 09005KT 12/02 A3044 RMK A01 T01200020  RH  051%=      5-min Rain = 0
KFL1 141231Z 09005KT 12/02 A3044 RMK A01 T01210021  RH  050%=      5-min Rain = 0
KFL1 141232Z 08006KT 12/02 A3044 RMK A01 T01210021  RH  050%=      5-min Rain = 0
KFL1 141233Z 08005KT 12/02 A3044 RMK A01 T01200020  RH  051%=      5-min Rain = 0
KFL1 141234Z 08005KT 12/02 A3044 RMK A01 T01200021  RH  051%=      5-min Rain = 0
KFL1 141235Z 08006KT 12/02 A3044 RMK A01 T01200020  RH  051%=      5-min Rain = 0
KFL1 141236Z 08004KT 12/02 A3044 RMK A01 T01220021  RH  050%=      5-min Rain = 0
KFL1 141237Z 07004KT 12/02 A3044 RMK A01 T01230020  RH  050%=      5-min Rain = 0
KFL1 141238Z 09004KT 12/02 A3044 RMK A01 T01240020  RH  049%=      5-min Rain = 0
KFL1 141239Z 08003KT 13/02 A3044 RMK A01 T01250021  RH  049%=      5-min Rain = 0
KFL1 141240Z 07003KT 12/02 A3044 RMK A01 T01240019  RH  049%=      5-min Rain = 0
KFL1 141241Z 07003KT 13/02 A3044 RMK A01 T01250020  RH  049%=      5-min Rain = 0
KFL1 141242Z 07004KT 13/02 A3044 RMK A01 T01260020  RH  049%=      5-min Rain = 0
KFL1 141243Z 07004KT 13/02 A3044 RMK A01 T01250020  RH  049%=      5-min Rain = 0
KFL1 141244Z 06005KT 12/02 A3044 RMK A01 T01230021  RH  050%=      5-min Rain = 0
KFL1 141245Z 06005KT 12/02 A3044 RMK A01 T01220020  RH  050%=      5-min Rain = 0
KFL1 141246Z 06006KT 12/02 A3044 RMK A01 T01220021  RH  050%=      5-min Rain = 0
KFL1 141247Z 06006KT 12/02 A3044 RMK A01 T01210021  RH  050%=      5-min Rain = 0
KFL1 141248Z 05005KT 12/02 A3044 RMK A01 T01210022  RH  051%=      5-min Rain = 0
KFL1 141249Z 06005KT 12/02 A3044 RMK A01 T01210022  RH  051%=      5-min Rain = 0
KFL1 141250Z 06005KT 12/02 A3044 RMK A01 T01180021  RH  051%=      5-min Rain = 0
KFL1 141251Z 06006KT 12/02 A3044 RMK A01 T01190022  RH  051%=      5-min Rain = 0
KFL1 141252Z 06006KT 12/02 A3044 RMK A01 T01180021  RH  051%=      5-min Rain = 0
KFL1 141253Z 05006KT 12/02 A3044 RMK A01 T01190022  RH  051%=      5-min Rain = 0
KFL1 141254Z 06006KT 12/02 A3044 RMK A01 T01190022  RH  051%=      5-min Rain = 0
KFL1 141255Z 06005KT 12/02 A3044 RMK A01 T01190022  RH  051%=      5-min Rain = 0
KFL1 141256Z 06006KT 12/02 A3044 RMK A01 T01190021  RH  051%=      5-min Rain = 0
KFL1 141257Z 05007KT 12/02 A3044 RMK A01 T01200022  RH  051%=      5-min Rain = 0
KFL1 141258Z 06006KT 12/02 A3044 RMK A01 T01210022  RH  051%=      5-min Rain = 0
KFL1 141259Z 06006KT 12/02 A3044 RMK A01 T01230023  RH  050%=      5-min Rain = 0
KFL1 141300Z 06007KT 12/02 A3044 RMK A01 T01240023  RH  050%=      5-min Rain = 0
KFL1 141301Z 06007KT 13/02 A3044 RMK A01 T01250023  RH  050%=      5-min Rain = 0
KFL1 141302Z 06007KT 13/02 A3044 RMK A01 T01250022  RH  049%=      5-min Rain = 0
KFL1 141303Z 06006KT 13/02 A3044 RMK A01 T01260023  RH  049%=      5-min Rain = 0
KFL1 141304Z 06006KT 13/02 A3044 RMK A01 T01280023  RH  049%=      5-min Rain = 0
KFL1 141305Z 06006KT 13/02 A3044 RMK A01 T01290023  RH  049%=      5-min Rain = 0
KFL1 141306Z 06006KT 13/02 A3044 RMK A01 T01290024  RH  049%=      5-min Rain = 0
KFL1 141307Z 06006KT 13/02 A3044 RMK A01 T01290024  RH  049%=      5-min Rain = 0
KFL1 141308Z 06005KT 13/02 A3044 RMK A01 T01300024  RH  049%=      5-min Rain = 0
KFL1 141309Z 06005KT 13/03 A3044 RMK A01 T01300025  RH  049%=      5-min Rain = 0
KFL1 141310Z 07005KT 13/03 A3044 RMK A01 T01310026  RH  049%=      5-min Rain = 0
KFL1 141311Z 07005KT 13/03 A3044 RMK A01 T01320026  RH  049%=      5-min Rain = 0
KFL1 141312Z 07004KT 13/03 A3044 RMK A01 T01330027  RH  048%=      5-min Rain = 0
KFL1 141313Z 07004KT 14/03 A3044 RMK A01 T01350028  RH  048%=      5-min Rain = 0
KFL1 141314Z 07004KT 14/03 A3044 RMK A01 T01350028  RH  048%=      5-min Rain = 0
KFL1 141315Z 07004KT 14/03 A3044 RMK A01 T01350028  RH  048%=      5-min Rain = 0
KFL1 141316Z 07004KT 14/03 A3044 RMK A01 T01370028  RH  048%=      5-min Rain = 0
KFL1 141317Z 06004KT 14/03 A3044 RMK A01 T01370028  RH  048%=      5-min Rain = 0
KFL1 141318Z 06004KT 14/03 A3044 RMK A01 T01370029  RH  048%=      5-min Rain = 0
KFL1 141319Z 07004KT 14/03 A3044 RMK A01 T01390030  RH  048%=      5-min Rain = 0
KFL1 141320Z 06004KT 14/03 A3044 RMK A01 T01400031  RH  048%=      5-min Rain = 0
KFL1 141321Z 06004KT 14/03 A3044 RMK A01 T01400031  RH  048%=      5-min Rain = 0
KFL1 141322Z 06005KT 14/03 A3044 RMK A01 T01390030  RH  048%=      5-min Rain = 0
KFL1 141323Z 06004KT 14/03 A3044 RMK A01 T01420033  RH  048%=      5-min Rain = 0
KFL1 141324Z 06005KT 14/03 A3044 RMK A01 T01420034  RH  048%=      5-min Rain = 0
KFL1 141325Z 06004KT 14/03 A3044 RMK A01 T01430034  RH  048%=      5-min Rain = 0
KFL1 141326Z 06004KT 15/03 A3044 RMK A01 T01450034  RH  047%=      5-min Rain = 0
KFL1 141327Z 06005KT 15/03 A3044 RMK A01 T01450034  RH  047%=      5-min Rain = 0
KFL1 141328Z 06005KT 15/03 A3044 RMK A01 T01450034  RH  047%=      5-min Rain = 0
KFL1 141329Z 06005KT 15/04 A3044 RMK A01 T01470035  RH  047%=      5-min Rain = 0
KFL1 141330Z 06005KT 15/04 A3044 RMK A01 T01480035  RH  047%=      5-min Rain = 0
KFL1 141331Z 06004KT 15/04 A3044 RMK A01 T01480036  RH  047%=      5-min Rain = 0
KFL1 141332Z 06005KT 15/04 A3044 RMK A01 T01490036  RH  047%=      5-min Rain = 0
KFL1 141333Z 06004KT 15/04 A3044 RMK A01 T01510037  RH  047%=      5-min Rain = 0
KFL1 141334Z 06005KT 15/04 A3044 RMK A01 T01520038  RH  047%=      5-min Rain = 0
KFL1 141335Z 06006KT 15/04 A3044 RMK A01 T01520040  RH  047%=      5-min Rain = 0
KFL1 141336Z 07005KT 15/04 A3044 RMK A01 T01530041  RH  047%=      5-min Rain = 0
KFL1 141337Z 07004KT 15/04 A3045 RMK A01 T01540040  RH  046%=      5-min Rain = 0
KFL1 141338Z 07005KT 16/04 A3045 RMK A01 T01550041  RH  046%=      5-min Rain = 0
KFL1 141339Z 07005KT 16/04 A3045 RMK A01 T01550040  RH  046%=      5-min Rain = 0
KFL1 141340Z 07004KT 16/04 A3045 RMK A01 T01560040  RH  046%=      5-min Rain = 0
KFL1 141341Z 07004KT 16/04 A3045 RMK A01 T01560041  RH  046%=      5-min Rain = 0
KFL1 141342Z 07005KT 16/04 A3045 RMK A01 T01580039  RH  045%=      5-min Rain = 0
KFL1 141343Z 07004KT 16/04 A3045 RMK A01 T01590041  RH  046%=      5-min Rain = 0
KFL1 141344Z 06004KT 16/04 A3045 RMK A01 T01590042  RH  046%=      5-min Rain = 0
KFL1 141345Z 07005KT 16/04 A3045 RMK A01 T01610043  RH  045%=      5-min Rain = 0
KFL1 141346Z 07004KT 16/04 A3045 RMK A01 T01610042  RH  045%=      5-min Rain = 0
KFL1 141347Z 07005KT 16/04 A3045 RMK A01 T01630043  RH  045%=      5-min Rain = 0
KFL1 141348Z 06005KT 16/04 A3045 RMK A01 T01630044  RH  045%=      5-min Rain = 0
KFL1 141349Z 07005KT 16/04 A3045 RMK A01 T01630043  RH  045%=      5-min Rain = 0
KFL1 141350Z 07005KT 17/04 A3045 RMK A01 T01660042  RH  044%=      5-min Rain = 0
KFL1 141351Z 07005KT 17/04 A3045 RMK A01 T01660043  RH  044%=      5-min Rain = 0
KFL1 141352Z 07006KT 17/04 A3045 RMK A01 T01670044  RH  044%=      5-min Rain = 0
KFL1 141353Z 07004KT 17/05 A3045 RMK A01 T01680046  RH  044%=      5-min Rain = 0
KFL1 141354Z 07005KT 17/05 A3045 RMK A01 T01690048  RH  045%=      5-min Rain = 0
KFL1 141355Z 08005KT 17/05 A3045 RMK A01 T01700050  RH  045%=      5-min Rain = 0
KFL1 141356Z 08004KT 17/05 A3045 RMK A01 T01710051  RH  045%=      5-min Rain = 0
KFL1 141357Z 08004KT 17/05 A3045 RMK A01 T01720048  RH  044%=      5-min Rain = 0
KFL1 141358Z 08005KT 17/05 A3045 RMK A01 T01730051  RH  044%=      5-min Rain = 0
KFL1 141359Z 08005KT 17/05 A3045 RMK A01 T01740047  RH  043%=      5-min Rain = 0
KFL1 141400Z 07005KT 18/05 A3045 RMK A01 T01760047  RH  043%=      5-min Rain = 0
KFL1 141401Z 08006KT 18/05 A3045 RMK A01 T01760047  RH  043%=      5-min Rain = 0
KFL1 141402Z 08004KT 18/05 A3045 RMK A01 T01770048  RH  042%=      5-min Rain = 0
KFL1 141403Z 08005KT 18/05 A3045 RMK A01 T01780048  RH  042%=      5-min Rain = 0
KFL1 141404Z 08005KT 18/05 A3045 RMK A01 T01790049  RH  042%=      5-min Rain = 0
KFL1 141405Z 08006KT 18/05 A3045 RMK A01 T01800050  RH  042%=      5-min Rain = 0
KFL1 141406Z 08006KT 18/05 A3045 RMK A01 T01820046  RH  041%=      5-min Rain = 0
KFL1 141407Z 08005KT 18/05 A3045 RMK A01 T01830046  RH  040%=      5-min Rain = 0
KFL1 141408Z 08006KT 19/05 A3045 RMK A01 T01850046  RH  040%=      5-min Rain = 0
KFL1 141409Z 07006KT 19/05 A3045 RMK A01 T01870051  RH  041%=      5-min Rain = 0
KFL1 141410Z 08006KT 19/05 A3045 RMK A01 T01870046  RH  039%=      5-min Rain = 0
KFL1 141411Z 07005KT 19/05 A3045 RMK A01 T01880048  RH  040%=      5-min Rain = 0
KFL1 141412Z 08006KT 19/04 A3045 RMK A01 T01890041  RH  038%=      5-min Rain = 0
KFL1 141413Z 07006KT 19/04 A3045 RMK A01 T01890040  RH  037%=      5-min Rain = 0
KFL1 141414Z 08007KT 19/04 A3045 RMK A01 T01920036  RH  036%=      5-min Rain = 0
KFL1 141415Z 06006KT 19/04 A3045 RMK A01 T01910038  RH  036%=      5-min Rain = 0
KFL1 141416Z 08005KT 19/04 A3045 RMK A01 T01930040  RH  036%=      5-min Rain = 0
KFL1 141417Z 07006KT 19/04 A3045 RMK A01 T01920040  RH  036%=      5-min Rain = 0
KFL1 141418Z 06006KT 19/04 A3046 RMK A01 T01940042  RH  037%=      5-min Rain = 0
KFL1 141419Z 07005KT 20/04 A3046 RMK A01 T01950043  RH  037%=      5-min Rain = 0
KFL1 141420Z 07005KT 20/04 A3046 RMK A01 T01960044  RH  037%=      5-min Rain = 0
KFL1 141421Z 07005KT 20/05 A3046 RMK A01 T01970045  RH  037%=      5-min Rain = 0
KFL1 141422Z 06005KT 20/05 A3046 RMK A01 T01980046  RH  037%=      5-min Rain = 0
KFL1 141423Z 07006KT 20/05 A3046 RMK A01 T02000045  RH  036%=      5-min Rain = 0
KFL1 141424Z 06005KT 20/04 A3046 RMK A01 T02000040  RH  035%=      5-min Rain = 0
KFL1 141425Z 07006KT 20/04 A3046 RMK A01 T02020042  RH  035%=      5-min Rain = 0
KFL1 141426Z 07003KT 20/04 A3046 RMK A01 T02040044  RH  035%=      5-min Rain = 0
KFL1 141427Z 07004KT 20/05 A3046 RMK A01 T02040045  RH  035%=      5-min Rain = 0
KFL1 141428Z 07004KT 21/05 A3046 RMK A01 T02060049  RH  036%=      5-min Rain = 0
KFL1 141429Z 07004KT 21/04 A3046 RMK A01 T02080043  RH  034%=      5-min Rain = 0
KFL1 141430Z 06004KT 21/05 A3046 RMK A01 T02090052  RH  036%=      5-min Rain = 0
KFL1 141431Z 08003KT 21/06 A3046 RMK A01 T02090055  RH  037%=      5-min Rain = 0
KFL1 141432Z 09006KT 21/06 A3046 RMK A01 T02110059  RH  037%=      5-min Rain = 0
KFL1 141433Z 08005KT 21/06 A3046 RMK A01 T02120056  RH  036%=      5-min Rain = 0
KFL1 141434Z 09005KT 21/06 A3046 RMK A01 T02130055  RH  036%=      5-min Rain = 0
KFL1 141435Z 08005KT 22/05 A3046 RMK A01 T02160051  RH  034%=      5-min Rain = 0
KFL1 141436Z 08004KT 22/06 A3046 RMK A01 T02160057  RH  035%=      5-min Rain = 0
KFL1 141437Z 09003KT 22/05 A3046 RMK A01 T02180053  RH  034%=      5-min Rain = 0
KFL1 141438Z 11003KT 22/06 A3046 RMK A01 T02180056  RH  035%=      5-min Rain = 0
KFL1 141439Z 11003KT 22/05 A3046 RMK A01 T02200049  RH  033%=      5-min Rain = 0
KFL1 141440Z 12003KT 22/05 A3046 RMK A01 T02210050  RH  033%=      5-min Rain = 0
KFL1 141441Z 12003KT 22/05 A3046 RMK A01 T02220050  RH  033%=      5-min Rain = 0
KFL1 141442Z 12003KT 22/04 A3046 RMK A01 T02230041  RH  030%=      5-min Rain = 0
KFL1 141443Z 11003KT 22/05 A3046 RMK A01 T02230045  RH  031%=      5-min Rain = 0
KFL1 141444Z 11003KT 22/05 A3046 RMK A01 T02230050  RH  032%=      5-min Rain = 0
KFL1 141445Z 12003KT 22/05 A3046 RMK A01 T02230048  RH  032%=      5-min Rain = 0
KFL1 141446Z 12002KT 23/05 A3046 RMK A01 T02260045  RH  031%=      5-min Rain = 0
KFL1 141447Z 14003KT 23/04 A3047 RMK A01 T02260043  RH  030%=      5-min Rain = 0
KFL1 141448Z 17002KT 23/05 A3047 RMK A01 T02280051  RH  031%=      5-min Rain = 0
KFL1 141449Z 17003KT 23/05 A3047 RMK A01 T02270054  RH  032%=      5-min Rain = 0
KFL1 141450Z 18003KT 23/05 A3047 RMK A01 T02270052  RH  032%=      5-min Rain = 0
KFL1 141451Z 16003KT 23/05 A3047 RMK A01 T02280051  RH  032%=      5-min Rain = 0
KFL1 141452Z 15003KT 23/05 A3047 RMK A01 T02290045  RH  030%=      5-min Rain = 0
KFL1 141453Z 15003KT 23/05 A3047 RMK A01 T02300048  RH  031%=      5-min Rain = 0
KFL1 141454Z 15003KT 23/04 A3047 RMK A01 T02300043  RH  030%=      5-min Rain = 0
KFL1 141455Z 14004KT 23/04 A3047 RMK A01 T02300044  RH  030%=      5-min Rain = 0
KFL1 141456Z 16004KT 23/05 A3047 RMK A01 T02310046  RH  030%=      5-min Rain = 0
KFL1 141457Z 14005KT 23/04 A3047 RMK A01 T02310040  RH  029%=      5-min Rain = 0
KFL1 141458Z 13005KT 23/04 A3047 RMK A01 T02320037  RH  028%=      5-min Rain = 0
KFL1 141459Z 12004KT 23/04 A3047 RMK A01 T02320035  RH  028%=      5-min Rain = 0
KFL1 141500Z 12003KT 23/04 A3047 RMK A01 T02310040  RH  029%=      5-min Rain = 0
KFL1 141501Z 12002KT 23/05 A3047 RMK A01 T02300046  RH  030%=      5-min Rain = 0
KFL1 141502Z 15004KT 23/05 A3047 RMK A01 T02310047  RH  030%=      5-min Rain = 0
KFL1 141503Z 13004KT 23/04 A3047 RMK A01 T02330036  RH  028%=      5-min Rain = 0
KFL1 141504Z 14003KT 23/03 A3047 RMK A01 T02330031  RH  027%=      5-min Rain = 0
KFL1 141505Z 13002KT 23/03 A3047 RMK A01 T02320031  RH  027%=      5-min Rain = 0
KFL1 141506Z 12003KT 24/05 A3047 RMK A01 T02350045  RH  029%=      5-min Rain = 0
KFL1 141507Z 13001KT 24/04 A3047 RMK A01 T02360035  RH  027%=      5-min Rain = 0
KFL1 141508Z 13002KT 24/03 A3047 RMK A01 T02350031  RH  026%=      5-min Rain = 0
KFL1 141509Z 13001KT 24/04 A3047 RMK A01 T02360038  RH  028%=      5-min Rain = 0
KFL1 141510Z 12001KT 24/05 A3047 RMK A01 T02360047  RH  029%=      5-min Rain = 0
KFL1 141511Z 11002KT 24/05 A3047 RMK A01 T02370045  RH  029%=      5-min Rain = 0
KFL1 141512Z 13002KT 24/04 A3047 RMK A01 T02390040  RH  027%=      5-min Rain = 0
KFL1 141513Z 15003KT 24/03 A3047 RMK A01 T02400032  RH  026%=      5-min Rain = 0
KFL1 141514Z 14003KT 24/03 A3047 RMK A01 T02400032  RH  026%=      5-min Rain = 0
KFL1 141515Z 13003KT 24/03 A3047 RMK A01 T02380032  RH  026%=      5-min Rain = 0
KFL1 141516Z 12003KT 24/05 A3047 RMK A01 T02360045  RH  029%=      5-min Rain = 0
KFL1 141517Z 10003KT 24/06 A3047 RMK A01 T02380055  RH  030%=      5-min Rain = 0
KFL1 141518Z 10002KT 24/06 A3047 RMK A01 T02410057  RH  030%=      5-min Rain = 0
KFL1 141519Z 11002KT 24/05 A3047 RMK A01 T02410047  RH  029%=      5-min Rain = 0
KFL1 141520Z 13004KT 24/04 A3047 RMK A01 T02400038  RH  027%=      5-min Rain = 0
KFL1 141521Z 12003KT 24/04 A3047 RMK A01 T02380040  RH  028%=      5-min Rain = 0
KFL1 141522Z 13003KT 24/03 A3047 RMK A01 T02390034  RH  026%=      5-min Rain = 0
KFL1 141523Z 13002KT 24/03 A3047 RMK A01 T02400026  RH  025%=      5-min Rain = 0
KFL1 141524Z 10001KT 24/03 A3047 RMK A01 T02390029  RH  025%=      5-min Rain = 0
KFL1 141525Z 13000KT 24/03 A3047 RMK A01 T02390025  RH  025%=      5-min Rain = 0
KFL1 141526Z 12003KT 24/05 A3047 RMK A01 T02400045  RH  028%=      5-min Rain = 0
KFL1 141527Z 10003KT 24/04 A3048 RMK A01 T02410037  RH  026%=      5-min Rain = 0
KFL1 141528Z 09003KT 24/04 A3048 RMK A01 T02400038  RH  027%=      5-min Rain = 0
KFL1 141529Z 09002KT 24/04 A3048 RMK A01 T02410040  RH  027%=      5-min Rain = 0
KFL1 141530Z 11002KT 24/04 A3048 RMK A01 T02440036  RH  026%=      5-min Rain = 0
KFL1 141531Z 11002KT 25/03 A3048 RMK A01 T02450034  RH  025%=      5-min Rain = 0
KFL1 141532Z 10003KT 24/03 A3048 RMK A01 T02440029  RH  025%=      5-min Rain = 0
KFL1 141533Z 10002KT 24/03 A3048 RMK A01 T02430025  RH  024%=      5-min Rain = 0
KFL1 141534Z 10002KT 24/03 A3048 RMK A01 T02430029  RH  025%=      5-min Rain = 0
KFL1 141535Z 08002KT 24/03 A3048 RMK A01 T02440032  RH  025%=      5-min Rain = 0
KFL1 141536Z 12002KT 25/04 A3048 RMK A01 T02450041  RH  027%=      5-min Rain = 0
KFL1 141537Z 13002KT 25/03 A3048 RMK A01 T02470030  RH  024%=      5-min Rain = 0
KFL1 141538Z 15002KT 25/03 A3048 RMK A01 T02490029  RH  024%=      5-min Rain = 0
KFL1 141539Z 14002KT 25/03 A3048 RMK A01 T02500029  RH  024%=      5-min Rain = 0
KFL1 141540Z 10002KT 25/03 A3048 RMK A01 T02500030  RH  024%=      5-min Rain = 0
KFL1 141541Z 08001KT 25/03 A3048 RMK A01 T02520031  RH  024%=      5-min Rain = 0
KFL1 141542Z 15001KT 25/03 A3048 RMK A01 T02510027  RH  023%=      5-min Rain = 0
KFL1 141543Z 17003KT 25/02 A3048 RMK A01 T02520021  RH  022%=      5-min Rain = 0
KFL1 141544Z 14004KT 25/02 A3048 RMK A01 T02500021  RH  022%=      5-min Rain = 0
KFL1 141545Z 15002KT 25/02 A3048 RMK A01 T02490019  RH  022%=      5-min Rain = 0
KFL1 141546Z 13002KT 25/02 A3048 RMK A01 T02500022  RH  023%=      5-min Rain = 0
KFL1 141547Z 16002KT 25/03 A3048 RMK A01 T02500029  RH  024%=      5-min Rain = 0
KFL1 141548Z 22003KT 25/02 A3048 RMK A01 T02500019  RH  022%=      5-min Rain = 0
KFL1 141549Z 21002KT 25/02 A3048 RMK A01 T02490018  RH  022%=      5-min Rain = 0
KFL1 141550Z 18001KT 25/03 A3048 RMK A01 T02490028  RH  024%=      5-min Rain = 0
KFL1 141551Z 31000KT 25/03 A3048 RMK A01 T02510028  RH  023%=      5-min Rain = 0
KFL1 141552Z 21000KT 25/03 A3048 RMK A01 T02510027  RH  023%=      5-min Rain = 0
KFL1 141553Z 21001KT 25/01 A3048 RMK A01 T02500014  RH  021%=      5-min Rain = 0
KFL1 141554Z 18001KT 25/02 A3048 RMK A01 T02530017  RH  022%=      5-min Rain = 0
KFL1 141555Z 15001KT 25/02 A3048 RMK A01 T02530021  RH  022%=      5-min Rain = 0
KFL1 141556Z 14003KT 25/03 A3048 RMK A01 T02520031  RH  024%=      5-min Rain = 0
KFL1 141557Z 16003KT 25/03 A3048 RMK A01 T02540029  RH  023%=      5-min Rain = 0
KFL1 141558Z 13003KT 25/03 A3048 RMK A01 T02540032  RH  024%=      5-min Rain = 0
KFL1 141559Z 14004KT 26/03 A3048 RMK A01 T02560029  RH  023%=      5-min Rain = 0
KFL1 141600Z 14004KT 26/03 A3048 RMK A01 T02560026  RH  023%=      5-min Rain = 0
KFL1 141601Z 13004KT 26/03 A3048 RMK A01 T02550033  RH  024%=      5-min Rain = 0
KFL1 141602Z 11002KT 26/04 A3048 RMK A01 T02570036  RH  024%=      5-min Rain = 0
KFL1 141603Z 12003KT 26/04 A3048 RMK A01 T02600036  RH  023%=      5-min Rain = 0
KFL1 141604Z 12002KT 26/03 A3048 RMK A01 T02610029  RH  022%=      5-min Rain = 0
KFL1 141605Z 14004KT 26/03 A3048 RMK A01 T02620033  RH  023%=      5-min Rain = 0
KFL1 141606Z 14005KT 26/03 A3048 RMK A01 T02610031  RH  023%=      5-min Rain = 0
KFL1 141607Z 16003KT 26/04 A3048 RMK A01 T02600037  RH  024%=      5-min Rain = 0
KFL1 141608Z 15004KT 26/04 A3048 RMK A01 T02590037  RH  024%=      5-min Rain = 0
KFL1 141609Z 11004KT 26/03 A3048 RMK A01 T02590028  RH  022%=      5-min Rain = 0
KFL1 141610Z 07002KT 26/02 A3048 RMK A01 T02580019  RH  021%=      5-min Rain = 0
KFL1 141611Z 08003KT 26/03 A3048 RMK A01 T02550026  RH  023%=      5-min Rain = 0
KFL1 141612Z 13004KT 26/04 A3048 RMK A01 T02550036  RH  024%=      5-min Rain = 0
KFL1 141613Z 15004KT 26/05 A3048 RMK A01 T02560046  RH  026%=      5-min Rain = 0
KFL1 141614Z 16005KT 26/05 A3048 RMK A01 T02580053  RH  027%=      5-min Rain = 0
KFL1 141615Z 18004KT 26/05 A3048 RMK A01 T02610050  RH  026%=      5-min Rain = 0
KFL1 141616Z 17004KT 26/04 A3048 RMK A01 T02640044  RH  024%=      5-min Rain = 0
KFL1 141617Z 18004KT 27/05 A3048 RMK A01 T02660047  RH  024%=      5-min Rain = 0
KFL1 141618Z 18005KT 27/05 A3048 RMK A01 T02680045  RH  024%=      5-min Rain = 0
KFL1 141619Z 18004KT 27/03 A3048 RMK A01 T02680033  RH  022%=      5-min Rain = 0
KFL1 141620Z 17005KT 27/03 A3048 RMK A01 T02660031  RH  022%=      5-min Rain = 0
KFL1 141621Z 15004KT 27/04 A3048 RMK A01 T02650037  RH  023%=      5-min Rain = 0
KFL1 141622Z 13003KT 27/03 A3048 RMK A01 T02650030  RH  022%=      5-min Rain = 0
KFL1 141623Z 14002KT 27/04 A3048 RMK A01 T02650037  RH  023%=      5-min Rain = 0
KFL1 141624Z 10003KT 27/04 A3048 RMK A01 T02670037  RH  023%=      5-min Rain = 0
KFL1 141625Z 14002KT 27/03 A3048 RMK A01 T02680032  RH  022%=      5-min Rain = 0
KFL1 141626Z 10003KT 27/02 A3048 RMK A01 T02650020  RH  020%=      5-min Rain = 0
KFL1 141627Z 08003KT 27/03 A3048 RMK A01 T02650034  RH  023%=      5-min Rain = 0
KFL1 141628Z 08001KT 26/04 A3048 RMK A01 T02640035  RH  023%=      5-min Rain = 0
KFL1 141629Z 14000KT 26/04 A3048 RMK A01 T02640035  RH  023%=      5-min Rain = 0
KFL1 141630Z 22002KT 27/04 A3048 RMK A01 T02670038  RH  023%=      5-min Rain = 0
KFL1 141631Z 17002KT 27/04 A3048 RMK A01 T02660043  RH  024%=      5-min Rain = 0
KFL1 141632Z 15003KT 27/05 A3048 RMK A01 T02660045  RH  024%=      5-min Rain = 0
KFL1 141633Z 15004KT 27/04 A3048 RMK A01 T02670036  RH  023%=      5-min Rain = 0
KFL1 141634Z 14004KT 27/04 A3048 RMK A01 T02660040  RH  023%=      5-min Rain = 0
KFL1 141635Z 15003KT 27/06 A3048 RMK A01 T02700057  RH  026%=      5-min Rain = 0
KFL1 141636Z 16004KT 27/04 A3048 RMK A01 T02700039  RH  023%=      5-min Rain = 0
KFL1 141637Z 16005KT 27/04 A3048 RMK A01 T02690042  RH  023%=      5-min Rain = 0
KFL1 141638Z 17004KT 27/04 A3048 RMK A01 T02690036  RH  022%=      5-min Rain = 0
KFL1 141639Z 19004KT 27/04 A3048 RMK A01 T02670038  RH  023%=      5-min Rain = 0
KFL1 141640Z 25002KT 27/02 A3048 RMK A01 T02670022  RH  020%=      5-min Rain = 0
KFL1 141641Z 22002KT 27/02 A3048 RMK A01 T02660022  RH  021%=      5-min Rain = 0
KFL1 141642Z 17002KT 27/03 A3048 RMK A01 T02660026  RH  021%=      5-min Rain = 0
KFL1 141643Z 15003KT 27/04 A3048 RMK A01 T02650038  RH  023%=      5-min Rain = 0
KFL1 141644Z 20004KT 27/04 A3048 RMK A01 T02660040  RH  023%=      5-min Rain = 0
KFL1 141645Z 19003KT 27/02 A3048 RMK A01 T02670022  RH  021%=      5-min Rain = 0
KFL1 141646Z 19005KT 27/03 A3048 RMK A01 T02650028  RH  022%=      5-min Rain = 0
KFL1 141647Z 19004KT 27/03 A3048 RMK A01 T02670031  RH  022%=      5-min Rain = 0
KFL1 141648Z 19005KT 27/04 A3048 RMK A01 T02670040  RH  023%=      5-min Rain = 0
KFL1 141649Z 21005KT 27/05 A3048 RMK A01 T02680048  RH  024%=      5-min Rain = 0
KFL1 141650Z 27002KT 27/04 A3048 RMK A01 T02700035  RH  022%=      5-min Rain = 0
KFL1 141651Z 23003KT 27/03 A3048 RMK A01 T02710033  RH  022%=      5-min Rain = 0
KFL1 141652Z 17005KT 27/03 A3048 RMK A01 T02700029  RH  021%=      5-min Rain = 0
KFL1 141653Z 16003KT 27/03 A3048 RMK A01 T02670025  RH  021%=      5-min Rain = 0
KFL1 141654Z 17003KT 27/03 A3048 RMK A01 T02680034  RH  022%=      5-min Rain = 0
KFL1 141655Z 16002KT 27/03 A3048 RMK A01 T02690029  RH  021%=      5-min Rain = 0
KFL1 141656Z 16003KT 27/03 A3048 RMK A01 T02680032  RH  022%=      5-min Rain = 0
KFL1 141657Z 21003KT 27/04 A3048 RMK A01 T02680039  RH  023%=      5-min Rain = 0
KFL1 141658Z 25003KT 27/04 A3048 RMK A01 T02710037  RH  022%=      5-min Rain = 0
KFL1 141659Z 23002KT 27/04 A3048 RMK A01 T02720044  RH  023%=      5-min Rain = 0
KFL1 141700Z 16002KT 27/04 A3048 RMK A01 T02730037  RH  022%=      5-min Rain = 0
KFL1 141701Z 14003KT 27/03 A3048 RMK A01 T02740027  RH  020%=      5-min Rain = 0
KFL1 141702Z 15003KT 27/03 A3048 RMK A01 T02730033  RH  021%=      5-min Rain = 0
KFL1 141703Z 14003KT 28/03 A3048 RMK A01 T02760033  RH  021%=      5-min Rain = 0
KFL1 141704Z 14002KT 28/03 A3048 RMK A01 T02770028  RH  020%=      5-min Rain = 0
KFL1 141705Z 20004KT 28/04 A3048 RMK A01 T02790040  RH  022%=      5-min Rain = 0
KFL1 141706Z 18005KT 28/04 A3048 RMK A01 T02760036  RH  021%=      5-min Rain = 0
KFL1 141707Z 14002KT 28/02 A3048 RMK A01 T02770024  RH  020%=      5-min Rain = 0
KFL1 141708Z 14003KT 27/04 A3048 RMK A01 T02740035  RH  022%=      5-min Rain = 0
KFL1 141709Z 18003KT 28/03 A3048 RMK A01 T02750032  RH  021%=      5-min Rain = 0
KFL1 141710Z 16002KT 28/03 A3048 RMK A01 T02760033  RH  021%=      5-min Rain = 0
KFL1 141711Z 15005KT 28/04 A3048 RMK A01 T02760039  RH  022%=      5-min Rain = 0
KFL1 141712Z 18005KT 28/04 A3048 RMK A01 T02800043  RH  022%=      5-min Rain = 0
KFL1 141713Z 17004KT 28/04 A3048 RMK A01 T02830037  RH  021%=      5-min Rain = 0
KFL1 141714Z 18004KT 28/04 A3048 RMK A01 T02820043  RH  022%=      5-min Rain = 0
KFL1 141715Z 17005KT 28/05 A3048 RMK A01 T02820047  RH  022%=      5-min Rain = 0
KFL1 141716Z 20003KT 28/05 A3048 RMK A01 T02840045  RH  022%=      5-min Rain = 0
KFL1 141717Z 20006KT 28/04 A3048 RMK A01 T02830042  RH  021%=      5-min Rain = 0
KFL1 141718Z 23006KT 28/05 A3048 RMK A01 T02840048  RH  022%=      5-min Rain = 0
KFL1 141719Z 24007KT 28/05 A3048 RMK A01 T02820046  RH  022%=      5-min Rain = 0
KFL1 141720Z 24005KT 28/05 A3048 RMK A01 T02820045  RH  022%=      5-min Rain = 0
KFL1 141721Z 23005KT 28/04 A3048 RMK A01 T02830042  RH  021%=      5-min Rain = 0
KFL1 141722Z 21007KT 28/04 A3048 RMK A01 T02830038  RH  021%=      5-min Rain = 0
KFL1 141723Z 22008KT 28/04 A3048 RMK A01 T02830040  RH  021%=      5-min Rain = 0
KFL1 141724Z 22009KT 28/04 A3048 RMK A01 T02800041  RH  022%=      5-min Rain = 0
KFL1 141725Z 22006KT 28/03 A3048 RMK A01 T02810028  RH  020%=      5-min Rain = 0
KFL1 141726Z 21004G9KT 28/05 A3047 RMK A01 T02840047  RH  022%=      5-min Rain = 0
KFL1 141727Z 24008G13KT 29/05 A3048 RMK A01 T02880051  RH  022%=      5-min Rain = 0
KFL1 141728Z 24010KT 29/04 A3048 RMK A01 T02880042  RH  021%=      5-min Rain = 0
KFL1 141729Z 24007KT 29/04 A3048 RMK A01 T02860039  RH  021%=      5-min Rain = 0
KFL1 141730Z 24004KT 29/04 A3048 RMK A01 T02860040  RH  021%=      5-min Rain = 0
KFL1 141731Z 22005KT 28/03 A3048 RMK A01 T02840033  RH  020%=      5-min Rain = 0
KFL1 141732Z 23003KT 28/04 A3048 RMK A01 T02840043  RH  021%=      5-min Rain = 0
KFL1 141733Z 21002KT 29/03 A3047 RMK A01 T02860030  RH  019%=      5-min Rain = 0
KFL1 141734Z 21006KT 29/03 A3047 RMK A01 T02850033  RH  020%=      5-min Rain = 0
KFL1 141735Z 22008KT 29/03 A3047 RMK A01 T02860034  RH  020%=      5-min Rain = 0
KFL1 141736Z 21008KT 29/04 A3047 RMK A01 T02850039  RH  021%=      5-min Rain = 0
KFL1 141737Z 23008KT 29/03 A3047 RMK A01 T02860032  RH  020%=      5-min Rain = 0
KFL1 141738Z 22005KT 29/04 A3047 RMK A01 T02850035  RH  020%=      5-min Rain = 0
KFL1 141739Z 18007KT 29/05 A3047 RMK A01 T02860046  RH  022%=      5-min Rain = 0
KFL1 141740Z 21007KT 29/04 A3047 RMK A01 T02890041  RH  021%=      5-min Rain = 0
KFL1 141741Z 22007KT 29/04 A3047 RMK A01 T02890039  RH  020%=      5-min Rain = 0
KFL1 141742Z 18008KT 29/04 A3047 RMK A01 T02890044  RH  021%=      5-min Rain = 0
KFL1 141743Z 19010KT 29/04 A3047 RMK A01 T02890043  RH  021%=      5-min Rain = 0
KFL1 141744Z 22011KT 29/04 A3047 RMK A01 T02900035  RH  020%=      5-min Rain = 0
KFL1 141745Z 22007KT 29/02 A3047 RMK A01 T02890022  RH  018%=      5-min Rain = 0
KFL1 141746Z 21005KT 29/02 A3047 RMK A01 T02880022  RH  018%=      5-min Rain = 0
KFL1 141747Z 20004KT 29/02 A3047 RMK A01 T02880016  RH  017%=      5-min Rain = 0
KFL1 141748Z 23002KT 29/03 A3047 RMK A01 T02860029  RH  019%=      5-min Rain = 0
KFL1 141749Z 26007KT 29/04 A3047 RMK A01 T02890036  RH  020%=      5-min Rain = 0
KFL1 141750Z 26007KT 29/04 A3047 RMK A01 T02890037  RH  020%=      5-min Rain = 0
KFL1 141751Z 31005KT 29/03 A3047 RMK A01 T02890029  RH  019%=      5-min Rain = 0
KFL1 141752Z 31005G11KT 29/01 A3047 RMK A01 T02870014  RH  017%=      5-min Rain = 0
KFL1 141753Z 29012KT 29/02 A3047 RMK A01 T02870018  RH  018%=      5-min Rain = 0
KFL1 141754Z 29010KT 29/01 A3047 RMK A01 T02870013  RH  017%=      5-min Rain = 0
KFL1 141755Z 33009KT 29/03 A3047 RMK A01 T02910025  RH  018%=      5-min Rain = 0
KFL1 141756Z 34008KT 29/03 A3047 RMK A01 T02940028  RH  018%=      5-min Rain = 0
KFL1 141757Z 35006KT 29/02 A3047 RMK A01 T02900020  RH  018%=      5-min Rain = 0
KFL1 141758Z 33005KT 29/02 A3047 RMK A01 T02880016  RH  017%=      5-min Rain = 0
KFL1 141759Z 33008KT 29/02 A3047 RMK A01 T02870015  RH  017%=      5-min Rain = 0
KFL1 141800Z 34007KT 29/02 A3047 RMK A01 T02880024  RH  018%=      5-min Rain = 0
KFL1 141801Z 36010G16KT 29/02 A3047 RMK A01 T02870023  RH  018%=      5-min Rain = 0
KFL1 141802Z 33014KT 28/02 A3047 RMK A01 T02810023  RH  019%=      5-min Rain = 0
KFL1 141803Z 33014KT 27/01 A3046 RMK A01 T02730014  RH  019%=      5-min Rain = 0
KFL1 141804Z 31017KT 27/01 A3046 RMK A01 T02670014  RH  019%=      5-min Rain = 0
KFL1 141805Z 29018KT 26/01 A3047 RMK A01 T02610014  RH  020%=      5-min Rain = 0
KFL1 141806Z 28013KT 26/01 A3047 RMK A01 T02590008  RH  020%=      5-min Rain = 0
KFL1 141807Z 26010KT 26/01 A3047 RMK A01 T02570011  RH  020%=      5-min Rain = 0
KFL1 141808Z 26008KT 25/02 A3047 RMK A01 T02540018  RH  022%=      5-min Rain = 0
KFL1 141809Z 28006KT 25/01 A3047 RMK A01 T02520014  RH  021%=      5-min Rain = 0
KFL1 141810Z 28009G15KT 25/02 A3047 RMK A01 T02540022  RH  022%=      5-min Rain = 0
KFL1 141811Z 28015G20KT 27/02 A3047 RMK A01 T02650017  RH  020%=      5-min Rain = 0
KFL1 141812Z 27006G11KT 27/01 A3047 RMK A01 T02740007  RH  018%=      5-min Rain = 0
KFL1 141813Z 28012KT 28/01 A3047 RMK A01 T02780011  RH  018%=      5-min Rain = 0
KFL1 141814Z 29013G18KT 28/01 A3047 RMK A01 T02800014  RH  018%=      5-min Rain = 0
KFL1 141815Z 29015KT 29/03 A3047 RMK A01 T02850034  RH  020%=      5-min Rain = 0
KFL1 141816Z 30008KT 29/01 A3047 RMK A01 T02880006  RH  016%=      5-min Rain = 0
KFL1 141817Z 29011KT 28/01 A3047 RMK A01 T02820011  RH  017%=      5-min Rain = 0
KFL1 141818Z 26010KT 28/01 A3047 RMK A01 T02760011  RH  018%=      5-min Rain = 0
KFL1 141819Z 28012KT 27/M00 A3047 RMK A01 T02711002  RH  017%=      5-min Rain = 0
KFL1 141820Z 29006KT 27/M00 A3047 RMK A01 T02711002  RH  017%=      5-min Rain = 0
KFL1 141821Z 29008KT 27/00 A3047 RMK A01 T027400-0  RH  017%=      5-min Rain = 0
KFL1 141822Z 30007KT 28/01 A3047 RMK A01 T02780005  RH  017%=      5-min Rain = 0
KFL1 141823Z 32006KT 28/01 A3047 RMK A01 T02810010  RH  017%=      5-min Rain = 0
KFL1 141824Z 24006G11KT 28/01 A3047 RMK A01 T02840007  RH  017%=      5-min Rain = 0
KFL1 141825Z 21008KT 28/01 A3046 RMK A01 T02830009  RH  017%=      5-min Rain = 0
KFL1 141826Z 23011KT 28/01 A3046 RMK A01 T02840010  RH  017%=      5-min Rain = 0
KFL1 141827Z 25012KT 28/02 A3046 RMK A01 T02840019  RH  018%=      5-min Rain = 0
KFL1 141828Z 25014G20KT 28/03 A3046 RMK A01 T02840027  RH  019%=      5-min Rain = 0
KFL1 141829Z 25019G24KT 29/02 A3047 RMK A01 T02860019  RH  018%=      5-min Rain = 0
KFL1 141830Z 26015KT 28/01 A3047 RMK A01 T02840013  RH  017%=      5-min Rain = 0
KFL1 141831Z 25013KT 28/01 A3047 RMK A01 T02820012  RH  017%=      5-min Rain = 0
KFL1 141832Z 25014KT 28/01 A3047 RMK A01 T02810013  RH  018%=      5-min Rain = 0
KFL1 141833Z 24010G15KT 28/01 A3047 RMK A01 T02800010  RH  017%=      5-min Rain = 0
KFL1 141834Z 24012KT 28/01 A3046 RMK A01 T02790014  RH  018%=      5-min Rain = 0
KFL1 141835Z 26010KT 28/01 A3046 RMK A01 T02800011  RH  017%=      5-min Rain = 0
KFL1 141836Z 24007KT 28/02 A3046 RMK A01 T02820017  RH  018%=      5-min Rain = 0
KFL1 141837Z 23011G17KT 29/03 A3046 RMK A01 T02850026  RH  019%=      5-min Rain = 0
KFL1 141838Z 26006KT 29/01 A3046 RMK A01 T02870009  RH  017%=      5-min Rain = 0
KFL1 141839Z 31013G22KT 29/02 A3046 RMK A01 T02850020  RH  018%=      5-min Rain = 0
KFL1 141840Z 30014KT 29/02 A3046 RMK A01 T02890019  RH  018%=      5-min Rain = 0
KFL1 141841Z 31015G20KT 29/02 A3046 RMK A01 T02880016  RH  017%=      5-min Rain = 0
KFL1 141842Z 32014G19KT 29/01 A3046 RMK A01 T02880008  RH  016%=      5-min Rain = 0
KFL1 141843Z 33018KT 29/01 A3046 RMK A01 T02870009  RH  017%=      5-min Rain = 0
KFL1 141844Z 33013KT 29/01 A3046 RMK A01 T02870009  RH  017%=      5-min Rain = 0
KFL1 141845Z 33012KT 29/02 A3046 RMK A01 T02880017  RH  018%=      5-min Rain = 0
KFL1 141846Z 31011KT 29/01 A3046 RMK A01 T02880013  RH  017%=      5-min Rain = 0
KFL1 141847Z 34011G18KT 29/01 A3046 RMK A01 T02900007  RH  016%=      5-min Rain = 0
KFL1 141848Z 34011KT 29/01 A3046 RMK A01 T02910008  RH  016%=      5-min Rain = 0
KFL1 141849Z 34010KT 29/00 A3046 RMK A01 T02850000  RH  016%=      5-min Rain = 0
KFL1 141850Z 34008KT 28/00 A3046 RMK A01 T02780004  RH  017%=      5-min Rain = 0
KFL1 141851Z 32007KT 28/02 A3046 RMK A01 T02770015  RH  018%=      5-min Rain = 0
KFL1 141852Z 31005KT 28/00 A3046 RMK A01 T02790001  RH  016%=      5-min Rain = 0
KFL1 141853Z 33007KT 28/M00 A3046 RMK A01 T02831002  RH  016%=      5-min Rain = 0
KFL1 141854Z 31006KT 28/01 A3046 RMK A01 T02840009  RH  017%=      5-min Rain = 0
KFL1 141855Z 31005KT 29/01 A3046 RMK A01 T02880010  RH  017%=      5-min Rain = 0
KFL1 141856Z 34006KT 29/02 A3046 RMK A01 T02900020  RH  018%=      5-min Rain = 0
KFL1 141857Z 33007KT 29/02 A3046 RMK A01 T02910017  RH  017%=      5-min Rain = 0
KFL1 141858Z 33006KT 29/00 A3046 RMK A01 T02910002  RH  015%=      5-min Rain = 0
KFL1 141859Z 33002KT 29/M01 A3046 RMK A01 T02901010  RH  014%=      5-min Rain = 0
KFL1 141900Z 27001KT 29/M02 A3046 RMK A01 T02861021  RH  013%=      5-min Rain = 0
KFL1 141901Z 18001KT 29/M00 A3046 RMK A01 T02851004  RH  015%=      5-min Rain = 0
KFL1 141902Z 32002KT 29/M01 A3046 RMK A01 T02871007  RH  015%=      5-min Rain = 0
KFL1 141903Z 31003KT 29/M00 A3046 RMK A01 T02901002  RH  015%=      5-min Rain = 0
KFL1 141904Z 28002KT 29/M01 A3046 RMK A01 T02881011  RH  014%=      5-min Rain = 0
KFL1 141905Z 24007G16KT 28/01 A3046 RMK A01 T02830008  RH  017%=      5-min Rain = 0
KFL1 141906Z 24010KT 28/02 A3046 RMK A01 T02810024  RH  019%=      5-min Rain = 0
KFL1 141907Z 25008KT 28/02 A3046 RMK A01 T02770021  RH  019%=      5-min Rain = 0
KFL1 141908Z 24005KT 28/02 A3046 RMK A01 T02750022  RH  020%=      5-min Rain = 0
KFL1 141909Z 25008G14KT 27/02 A3046 RMK A01 T02730021  RH  020%=      5-min Rain = 0
KFL1 141910Z 25011KT 27/02 A3046 RMK A01 T02680017  RH  020%=      5-min Rain = 0
KFL1 141911Z 28010KT 27/02 A3045 RMK A01 T02650019  RH  020%=      5-min Rain = 0
KFL1 141912Z 28013KT 26/02 A3045 RMK A01 T02610022  RH  021%=      5-min Rain = 0
KFL1 141913Z 27010KT 26/00 A3045 RMK A01 T02640002  RH  018%=      5-min Rain = 0
KFL1 141914Z 26008KT 27/02 A3045 RMK A01 T02690018  RH  020%=      5-min Rain = 0
KFL1 141915Z 25006KT 27/04 A3045 RMK A01 T02720036  RH  022%=      5-min Rain = 0
KFL1 141916Z 24006KT 27/03 A3045 RMK A01 T02710033  RH  022%=      5-min Rain = 0
KFL1 141917Z 23006KT 27/03 A3045 RMK A01 T02710027  RH  021%=      5-min Rain = 0
KFL1 141918Z 23005G10KT 27/03 A3045 RMK A01 T02720026  RH  020%=      5-min Rain = 0
KFL1 141919Z 22007KT 28/03 A3045 RMK A01 T02770031  RH  021%=      5-min Rain = 0
KFL1 141920Z 22006KT 28/02 A3045 RMK A01 T02830022  RH  019%=      5-min Rain = 0
KFL1 141921Z 21007KT 29/02 A3045 RMK A01 T02870015  RH  017%=      5-min Rain = 0
KFL1 141922Z 23005KT 29/01 A3045 RMK A01 T02890012  RH  017%=      5-min Rain = 0
KFL1 141923Z 26006KT 29/02 A3045 RMK A01 T02880017  RH  017%=      5-min Rain = 0
KFL1 141924Z 24005KT 29/02 A3045 RMK A01 T02910018  RH  017%=      5-min Rain = 0
KFL1 141925Z 26004KT 29/02 A3045 RMK A01 T02910020  RH  018%=      5-min Rain = 0
KFL1 141926Z 27004KT 29/02 A3045 RMK A01 T02920024  RH  018%=      5-min Rain = 0
KFL1 141927Z 30004KT 29/01 A3045 RMK A01 T02940009  RH  016%=      5-min Rain = 0
KFL1 141928Z 33007KT 30/01 A3045 RMK A01 T02950014  RH  016%=      5-min Rain = 0
KFL1 141929Z 32008KT 30/02 A3045 RMK A01 T02950023  RH  017%=      5-min Rain = 0
KFL1 141930Z 30010KT 30/03 A3045 RMK A01 T02950025  RH  018%=      5-min Rain = 0
KFL1 141931Z 32008KT 29/02 A3045 RMK A01 T02880023  RH  018%=      5-min Rain = 0
KFL1 141932Z 31004KT 28/01 A3045 RMK A01 T02810012  RH  018%=      5-min Rain = 0
KFL1 141933Z 23004KT 28/01 A3045 RMK A01 T02750006  RH  017%=      5-min Rain = 0
KFL1 141934Z 23003KT 27/M02 A3045 RMK A01 T02711020  RH  015%=      5-min Rain = 0
KFL1 141935Z 22003KT 27/M00 A3045 RMK A01 T02691001  RH  017%=      5-min Rain = 0
KFL1 141936Z 29001KT 27/00 A3045 RMK A01 T02700002  RH  017%=      5-min Rain = 0
KFL1 141937Z 30004KT 27/M00 A3045 RMK A01 T02721004  RH  016%=      5-min Rain = 0
KFL1 141938Z 30009KT 27/01 A3045 RMK A01 T02730007  RH  018%=      5-min Rain = 0
KFL1 141939Z 30008KT 27/02 A3045 RMK A01 T02740015  RH  019%=      5-min Rain = 0
KFL1 141940Z 31007KT 27/01 A3045 RMK A01 T02710011  RH  018%=      5-min Rain = 0
KFL1 141941Z 31006KT 27/01 A3045 RMK A01 T02690013  RH  019%=      5-min Rain = 0
KFL1 141942Z 31007KT 27/02 A3045 RMK A01 T02680022  RH  020%=      5-min Rain = 0
KFL1 141943Z 30007KT 26/02 A3045 RMK A01 T02640024  RH  021%=      5-min Rain = 0
KFL1 141944Z 27008KT 26/03 A3045 RMK A01 T02630027  RH  022%=      5-min Rain = 0
KFL1 141945Z 28004KT 27/02 A3045 RMK A01 T02680023  RH  020%=      5-min Rain = 0
KFL1 141946Z 31004KT 28/03 A3045 RMK A01 T02770027  RH  020%=      5-min Rain = 0
KFL1 141947Z 31003KT 28/01 A3045 RMK A01 T02790009  RH  017%=      5-min Rain = 0
KFL1 141948Z 29004KT 28/03 A3045 RMK A01 T02800031  RH  020%=      5-min Rain = 0
KFL1 141949Z 26005KT 29/05 A3045 RMK A01 T02850047  RH  022%=      5-min Rain = 0
KFL1 141950Z 28008KT 29/04 A3045 RMK A01 T02880035  RH  020%=      5-min Rain = 0
KFL1 141951Z 31007KT 29/02 A3045 RMK A01 T02880020  RH  018%=      5-min Rain = 0
KFL1 141952Z 32008KT 29/01 A3045 RMK A01 T02900011  RH  016%=      5-min Rain = 0
KFL1 141953Z 34007KT 29/02 A3045 RMK A01 T02930020  RH  017%=      5-min Rain = 0
KFL1 141954Z 34008KT 29/04 A3044 RMK A01 T02940036  RH  019%=      5-min Rain = 0
KFL1 141955Z 32006KT 29/04 A3044 RMK A01 T02930037  RH  019%=      5-min Rain = 0
KFL1 141956Z 27005KT 29/04 A3044 RMK A01 T02920040  RH  020%=      5-min Rain = 0
KFL1 141957Z 25004KT 29/02 A3044 RMK A01 T02880020  RH  018%=      5-min Rain = 0
KFL1 141958Z 28004KT 29/02 A3044 RMK A01 T02850023  RH  019%=      5-min Rain = 0
KFL1 141959Z 27007KT 28/03 A3044 RMK A01 T02820029  RH  020%=      5-min Rain = 0
KFL1 142000Z 29009KT 28/04 A3044 RMK A01 T02800041  RH  022%=      5-min Rain = 0
KFL1 142001Z 28010KT 28/04 A3044 RMK A01 T02770037  RH  021%=      5-min Rain = 0
KFL1 142002Z 28008KT 27/04 A3044 RMK A01 T02720037  RH  022%=      5-min Rain = 0
KFL1 142003Z 27006KT 27/04 A3044 RMK A01 T02670041  RH  023%=      5-min Rain = 0
KFL1 142004Z 27006KT 26/05 A3044 RMK A01 T02610051  RH  026%=      5-min Rain = 0
KFL1 142005Z 27006KT 25/05 A3044 RMK A01 T02540050  RH  027%=      5-min Rain = 0
KFL1 142006Z 27006KT 25/05 A3044 RMK A01 T02540051  RH  027%=      5-min Rain = 0
KFL1 142007Z 30009KT 26/04 A3044 RMK A01 T02560039  RH  025%=      5-min Rain = 0
KFL1 142008Z 29010KT 26/06 A3044 RMK A01 T02620056  RH  027%=      5-min Rain = 0
KFL1 142009Z 29008KT 27/04 A3044 RMK A01 T02670037  RH  023%=      5-min Rain = 0
KFL1 142010Z 27005KT 28/02 A3044 RMK A01 T02760022  RH  019%=      5-min Rain = 0
KFL1 142011Z 30008KT 28/01 A3044 RMK A01 T02810011  RH  017%=      5-min Rain = 0
KFL1 142012Z 27006KT 28/02 A3044 RMK A01 T02820016  RH  018%=      5-min Rain = 0
KFL1 142013Z 27006KT 29/05 A3044 RMK A01 T02850053  RH  023%=      5-min Rain = 0
KFL1 142014Z 26008KT 29/04 A3044 RMK A01 T02890041  RH  021%=      5-min Rain = 0
KFL1 142015Z 30006KT 29/04 A3044 RMK A01 T02920040  RH  020%=      5-min Rain = 0
KFL1 142016Z 35008KT 30/04 A3044 RMK A01 T02950036  RH  019%=      5-min Rain = 0
KFL1 142017Z 31008G13KT 30/04 A3044 RMK A01 T02980040  RH  019%=      5-min Rain = 0
KFL1 142018Z 31006G11KT 30/02 A3044 RMK A01 T02990023  RH  017%=      5-min Rain = 0
KFL1 142019Z 32007KT 30/02 A3044 RMK A01 T03010023  RH  017%=      5-min Rain = 0
KFL1 142020Z 33006KT 30/03 A3044 RMK A01 T03020032  RH  018%=      5-min Rain = 0
KFL1 142021Z 32013KT 30/03 A3044 RMK A01 T03030028  RH  017%=      5-min Rain = 0
KFL1 142022Z 31014KT 30/01 A3043 RMK A01 T03010011  RH  016%=      5-min Rain = 0
KFL1 142023Z 27012KT 30/03 A3044 RMK A01 T02970034  RH  019%=      5-min Rain = 0
KFL1 142024Z 27013KT 29/04 A3044 RMK A01 T02930038  RH  020%=      5-min Rain = 0
KFL1 142025Z 28012KT 29/03 A3044 RMK A01 T02850034  RH  020%=      5-min Rain = 0
KFL1 142026Z 30013KT 28/04 A3044 RMK A01 T02820039  RH  021%=      5-min Rain = 0
KFL1 142027Z 29007KT 29/02 A3043 RMK A01 T02860017  RH  018%=      5-min Rain = 0
KFL1 142028Z 24007KT 29/01 A3043 RMK A01 T02880011  RH  017%=      5-min Rain = 0
KFL1 142029Z 26008KT 29/02 A3043 RMK A01 T02880022  RH  018%=      5-min Rain = 0
KFL1 142030Z 26010KT 29/02 A3043 RMK A01 T02890022  RH  018%=      5-min Rain = 0
KFL1 142031Z 24007KT 29/04 A3043 RMK A01 T02910036  RH  020%=      5-min Rain = 0
KFL1 142032Z 25009KT 30/03 A3043 RMK A01 T02960029  RH  018%=      5-min Rain = 0
KFL1 142033Z 26011KT 30/04 A3043 RMK A01 T02980036  RH  019%=      5-min Rain = 0
KFL1 142034Z 27014KT 30/04 A3043 RMK A01 T02980035  RH  019%=      5-min Rain = 0
KFL1 142035Z 28013KT 29/04 A3043 RMK A01 T02940036  RH  019%=      5-min Rain = 0
KFL1 142036Z 29010G15KT 29/04 A3043 RMK A01 T02880036  RH  020%=      5-min Rain = 0
KFL1 142037Z 30012KT 29/03 A3043 RMK A01 T02860034  RH  020%=      5-min Rain = 0
KFL1 142038Z 30012KT 29/02 A3043 RMK A01 T02870018  RH  018%=      5-min Rain = 0
KFL1 142039Z 31009KT 29/01 A3043 RMK A01 T02870012  RH  017%=      5-min Rain = 0
KFL1 142040Z 31011KT 29/02 A3043 RMK A01 T02920023  RH  018%=      5-min Rain = 0
KFL1 142041Z 30009KT 30/02 A3043 RMK A01 T02950023  RH  017%=      5-min Rain = 0
KFL1 142042Z 30010KT 30/02 A3043 RMK A01 T02990021  RH  017%=      5-min Rain = 0
KFL1 142043Z 30009KT 30/02 A3043 RMK A01 T03000016  RH  016%=      5-min Rain = 0
KFL1 142044Z 30011G16KT 30/04 A3043 RMK A01 T03000037  RH  019%=      5-min Rain = 0
KFL1 142045Z 29012KT 30/03 A3043 RMK A01 T03010034  RH  018%=      5-min Rain = 0
KFL1 142046Z 30012G17KT 30/02 A3043 RMK A01 T02990024  RH  017%=      5-min Rain = 0
KFL1 142047Z 29017KT 30/03 A3043 RMK A01 T02990027  RH  018%=      5-min Rain = 0
KFL1 142048Z 32010G19KT 30/03 A3043 RMK A01 T03000027  RH  018%=      5-min Rain = 0
KFL1 142049Z 32004KT 30/M01 A3043 RMK A01 T02961012  RH  014%=      5-min Rain = 0
KFL1 142050Z 29004KT 29/M00 A3042 RMK A01 T02911004  RH  015%=      5-min Rain = 0
KFL1 142051Z 21006KT 29/02 A3042 RMK A01 T02900019  RH  017%=      5-min Rain = 0
KFL1 142052Z 23005KT 29/02 A3042 RMK A01 T02940022  RH  017%=      5-min Rain = 0
KFL1 142053Z 24007KT 30/03 A3043 RMK A01 T02970027  RH  018%=      5-min Rain = 0
KFL1 142054Z 28012KT 30/03 A3043 RMK A01 T02990025  RH  017%=      5-min Rain = 0
KFL1 142055Z 32010KT 30/01 A3042 RMK A01 T02990005  RH  015%=      5-min Rain = 0
KFL1 142056Z 31011KT 30/01 A3042 RMK A01 T02990009  RH  015%=      5-min Rain = 0
KFL1 142057Z 26011G19KT 30/03 A3042 RMK A01 T03000030  RH  018%=      5-min Rain = 0
KFL1 142058Z 26017KT 30/02 A3042 RMK A01 T03010016  RH  016%=      5-min Rain = 0
KFL1 142059Z 26011KT 30/01 A3042 RMK A01 T02980007  RH  015%=      5-min Rain = 0
KFL1 142100Z 27009KT 30/02 A3042 RMK A01 T02960016  RH  017%=      5-min Rain = 0
KFL1 142101Z 32012KT 30/03 A3042 RMK A01 T02950029  RH  018%=      5-min Rain = 0
KFL1 142102Z 30010KT 30/01 A3042 RMK A01 T02970010  RH  016%=      5-min Rain = 0
KFL1 142103Z 30010G16KT 30/01 A3042 RMK A01 T02980005  RH  015%=      5-min Rain = 0
KFL1 142104Z 32013G18KT 30/02 A3042 RMK A01 T03000017  RH  016%=      5-min Rain = 0
KFL1 142105Z 32014G19KT 30/01 A3042 RMK A01 T03030012  RH  015%=      5-min Rain = 0
KFL1 142106Z 30018KT 30/02 A3042 RMK A01 T03020018  RH  016%=      5-min Rain = 0
KFL1 142107Z 31012KT 30/01 A3042 RMK A01 T03000010  RH  015%=      5-min Rain = 0
KFL1 142108Z 32014KT 30/00 A3042 RMK A01 T02970004  RH  015%=      5-min Rain = 0
KFL1 142109Z 33011KT 30/00 A3042 RMK A01 T029700-0  RH  015%=      5-min Rain = 0
KFL1 142110Z 32013KT 29/00 A3042 RMK A01 T02940001  RH  015%=      5-min Rain = 0
KFL1 142111Z 33010KT 30/01 A3042 RMK A01 T02950005  RH  015%=      5-min Rain = 0
KFL1 142112Z 30007KT 30/01 A3042 RMK A01 T02960007  RH  016%=      5-min Rain = 0
KFL1 142113Z 31010KT 30/M01 A3042 RMK A01 T02971008  RH  014%=      5-min Rain = 0
KFL1 142114Z 29006KT 30/M00 A3042 RMK A01 T02971003  RH  014%=      5-min Rain = 0
KFL1 142115Z 30012KT 30/01 A3042 RMK A01 T02990009  RH  015%=      5-min Rain = 0
KFL1 142116Z 32013KT 30/01 A3042 RMK A01 T03000006  RH  015%=      5-min Rain = 0
KFL1 142117Z 33008KT 30/M00 A3042 RMK A01 T02991002  RH  014%=      5-min Rain = 0
KFL1 142118Z 35007KT 30/00 A3042 RMK A01 T02960001  RH  015%=      5-min Rain = 0
KFL1 142119Z 31003KT 29/M01 A3042 RMK A01 T02941006  RH  014%=      5-min Rain = 0
KFL1 142120Z 28008KT 29/04 A3042 RMK A01 T02940037  RH  019%=      5-min Rain = 0
KFL1 142121Z 28014KT 30/02 A3042 RMK A01 T02960017  RH  017%=      5-min Rain = 0
KFL1 142122Z 29015KT 29/00 A3042 RMK A01 T02930001  RH  015%=      5-min Rain = 0
KFL1 142123Z 29012KT 29/01 A3042 RMK A01 T02940005  RH  015%=      5-min Rain = 0
KFL1 142124Z 27012KT 30/01 A3042 RMK A01 T02950011  RH  016%=      5-min Rain = 0
KFL1 142125Z 26009KT 30/M00 A3042 RMK A01 T02951004  RH  014%=      5-min Rain = 0
KFL1 142126Z 29012G20KT 29/00 A3042 RMK A01 T02940000  RH  015%=      5-min Rain = 0
KFL1 142127Z 28012KT 29/01 A3042 RMK A01 T02920009  RH  016%=      5-min Rain = 0
KFL1 142128Z 26011KT 29/01 A3042 RMK A01 T02940007  RH  016%=      5-min Rain = 0
KFL1 142129Z 30013KT 29/01 A3042 RMK A01 T02920013  RH  017%=      5-min Rain = 0
KFL1 142130Z 30012G17KT 29/00 A3042 RMK A01 T02940001  RH  015%=      5-min Rain = 0
KFL1 142131Z 30016KT 30/M01 A3042 RMK A01 T02961005  RH  014%=      5-min Rain = 0
KFL1 142132Z 29013KT 30/00 A3042 RMK A01 T02970000  RH  015%=      5-min Rain = 0
KFL1 142133Z 28013KT 30/00 A3042 RMK A01 T02960004  RH  015%=      5-min Rain = 0
KFL1 142134Z 29012KT 30/02 A3042 RMK A01 T02950018  RH  017%=      5-min Rain = 0
KFL1 142135Z 28015KT 29/01 A3042 RMK A01 T02930012  RH  016%=      5-min Rain = 0
KFL1 142136Z 29012G17KT 29/00 A3042 RMK A01 T02940001  RH  015%=      5-min Rain = 0
KFL1 142137Z 30010KT 30/M01 A3042 RMK A01 T02961005  RH  014%=      5-min Rain = 0
KFL1 142138Z 30011KT 30/01 A3042 RMK A01 T02970008  RH  016%=      5-min Rain = 0
KFL1 142139Z 27007KT 30/M00 A3042 RMK A01 T02971002  RH  014%=      5-min Rain = 0
KFL1 142140Z 29007KT 30/M02 A3041 RMK A01 T02961021  RH  013%=      5-min Rain = 0
KFL1 142141Z 25006KT 29/M01 A3041 RMK A01 T02931007  RH  014%=      5-min Rain = 0
KFL1 142142Z 27002KT 29/M03 A3041 RMK A01 T02921027  RH  012%=      5-min Rain = 0
KFL1 142143Z 32012KT 29/M01 A3041 RMK A01 T02921011  RH  014%=      5-min Rain = 0
KFL1 142144Z 32011KT 30/02 A3041 RMK A01 T02950017  RH  017%=      5-min Rain = 0
KFL1 142145Z 32005KT 30/M00 A3041 RMK A01 T02981002  RH  014%=      5-min Rain = 0
KFL1 142146Z 30004KT 30/00 A3041 RMK A01 T02970003  RH  015%=      5-min Rain = 0
KFL1 142147Z 29007KT 30/00 A3041 RMK A01 T03000004  RH  015%=      5-min Rain = 0
KFL1 142148Z 31006KT 30/02 A3041 RMK A01 T03030018  RH  016%=      5-min Rain = 0
KFL1 142149Z 32009KT 30/01 A3041 RMK A01 T03040014  RH  016%=      5-min Rain = 0
KFL1 142150Z 28013KT 31/02 A3041 RMK A01 T03050022  RH  016%=      5-min Rain = 0
KFL1 142151Z 29013KT 31/01 A3041 RMK A01 T03050011  RH  015%=      5-min Rain = 0
KFL1 142152Z 28015KT 30/00 A3041 RMK A01 T03010004  RH  015%=      5-min Rain = 0
KFL1 142153Z 28014KT 29/00 A3041 RMK A01 T02940003  RH  015%=      5-min Rain = 0
KFL1 142154Z 29012KT 29/01 A3041 RMK A01 T02920005  RH  016%=      5-min Rain = 0
KFL1 142155Z 29010KT 29/02 A3041 RMK A01 T02940015  RH  017%=      5-min Rain = 0
KFL1 142156Z 27008KT 30/04 A3041 RMK A01 T02950042  RH  020%=      5-min Rain = 0
KFL1 142157Z 27007KT 30/05 A3041 RMK A01 T02950045  RH  020%=      5-min Rain = 0
KFL1 142158Z 27007KT 29/02 A3041 RMK A01 T02930021  RH  017%=      5-min Rain = 0
KFL1 142159Z 25005KT 29/01 A3041 RMK A01 T02920008  RH  016%=      5-min Rain = 0
KFL1 142200Z 25006KT 29/02 A304 RMK A01 T02920022  RH  018%=      5-min Rain = 0
KFL1 142201Z 28007KT 29/01 A3041 RMK A01 T02930012  RH  016%=      5-min Rain = 0
KFL1 142202Z 31010G15KT 29/04 A3041 RMK A01 T02940037  RH  019%=      5-min Rain = 0
KFL1 142203Z 31010KT 29/03 A3041 RMK A01 T02930029  RH  018%=      5-min Rain = 0
KFL1 142204Z 32014KT 29/02 A304 RMK A01 T02920018  RH  017%=      5-min Rain = 0
KFL1 142205Z 31014KT 29/01 A304 RMK A01 T02920014  RH  017%=      5-min Rain = 0
KFL1 142206Z 30016KT 29/04 A304 RMK A01 T02940035  RH  019%=      5-min Rain = 0
KFL1 142207Z 31017KT 29/01 A304 RMK A01 T02930005  RH  016%=      5-min Rain = 0
KFL1 142208Z 30015KT 29/00 A304 RMK A01 T02920001  RH  015%=      5-min Rain = 0
KFL1 142209Z 31015KT 29/M01 A304 RMK A01 T02911013  RH  014%=      5-min Rain = 0
KFL1 142210Z 31014KT 29/M01 A304 RMK A01 T02901006  RH  015%=      5-min Rain = 0
KFL1 142211Z 31016KT 29/M01 A304 RMK A01 T02911009  RH  014%=      5-min Rain = 0
KFL1 142212Z 31014KT 29/M02 A304 RMK A01 T02901015  RH  014%=      5-min Rain = 0
KFL1 142213Z 30016KT 29/M00 A304 RMK A01 T02891004  RH  015%=      5-min Rain = 0
KFL1 142214Z 31013KT 29/00 A304 RMK A01 T02900000  RH  015%=      5-min Rain = 0
KFL1 142215Z 32011KT 29/M00 A304 RMK A01 T02891002  RH  015%=      5-min Rain = 0
KFL1 142216Z 32010KT 29/M00 A304 RMK A01 T02891003  RH  015%=      5-min Rain = 0
KFL1 142217Z 31009KT 29/00 A304 RMK A01 T02920001  RH  015%=      5-min Rain = 0
KFL1 142218Z 33008KT 29/01 A304 RMK A01 T02940009  RH  016%=      5-min Rain = 0
KFL1 142219Z 34008KT 29/M01 A304 RMK A01 T02931007  RH  014%=      5-min Rain = 0
KFL1 142220Z 33010KT 29/M00 A304 RMK A01 T02911003  RH  015%=      5-min Rain = 0
KFL1 142221Z 33007KT 29/01 A304 RMK A01 T02920008  RH  016%=      5-min Rain = 0
KFL1 142222Z 33008KT 29/01 A304 RMK A01 T02920010  RH  016%=      5-min Rain = 0
KFL1 142223Z 33013KT 29/01 A304 RMK A01 T02920010  RH  016%=      5-min Rain = 0
KFL1 142224Z 33012KT 29/01 A304 RMK A01 T02920006  RH  016%=      5-min Rain = 0
KFL1 142225Z 31013KT 29/00 A304 RMK A01 T02930003  RH  015%=      5-min Rain = 0
KFL1 142226Z 32013KT 29/02 A304 RMK A01 T02930015  RH  017%=      5-min Rain = 0
KFL1 142227Z 31014KT 29/03 A304 RMK A01 T02910030  RH  019%=      5-min Rain = 0
KFL1 142228Z 30011KT 29/02 A304 RMK A01 T02870019  RH  018%=      5-min Rain = 0
KFL1 142229Z 31010KT 29/02 A304 RMK A01 T02850016  RH  018%=      5-min Rain = 0
KFL1 142230Z 30013KT 29/01 A304 RMK A01 T02850006  RH  016%=      5-min Rain = 0
KFL1 142231Z 28010KT 29/02 A304 RMK A01 T02860023  RH  018%=      5-min Rain = 0
KFL1 142232Z 30007KT 29/03 A304 RMK A01 T02860029  RH  019%=      5-min Rain = 0
KFL1 142233Z 31006KT 29/04 A304 RMK A01 T02850036  RH  020%=      5-min Rain = 0
KFL1 142234Z 31009KT 29/02 A304 RMK A01 T02880024  RH  018%=      5-min Rain = 0
KFL1 142235Z 31009KT 29/00 A3039 RMK A01 T02890000  RH  015%=      5-min Rain = 0
KFL1 142236Z 32006KT 29/M02 A3039 RMK A01 T02901022  RH  013%=      5-min Rain = 0
KFL1 142237Z 32007KT 29/M02 A3039 RMK A01 T02891020  RH  013%=      5-min Rain = 0
KFL1 142238Z 30013KT 29/00 A3039 RMK A01 T02880000  RH  015%=      5-min Rain = 0
KFL1 142239Z 32011KT 29/01 A3039 RMK A01 T02900011  RH  017%=      5-min Rain = 0
KFL1 142240Z 31008KT 29/M01 A3039 RMK A01 T02901008  RH  014%=      5-min Rain = 0
KFL1 142241Z 29009KT 29/M01 A3039 RMK A01 T02911005  RH  015%=      5-min Rain = 0
KFL1 142242Z 29010KT 29/M02 A3039 RMK A01 T02921016  RH  013%=      5-min Rain = 0
KFL1 142243Z 33011G16KT 29/01 A3039 RMK A01 T02900011  RH  017%=      5-min Rain = 0
KFL1 142244Z 33007KT 29/00 A3039 RMK A01 T02900003  RH  016%=      5-min Rain = 0
KFL1 142245Z 33009KT 29/00 A3039 RMK A01 T02890002  RH  016%=      5-min Rain = 0
KFL1 142246Z 31010KT 29/01 A3039 RMK A01 T02930012  RH  016%=      5-min Rain = 0
KFL1 142247Z 31009KT 29/M00 A3039 RMK A01 T02921001  RH  015%=      5-min Rain = 0
KFL1 142248Z 30010KT 29/01 A3039 RMK A01 T02940011  RH  016%=      5-min Rain = 0
KFL1 142249Z 28013KT 30/M00 A304 RMK A01 T02951003  RH  014%=      5-min Rain = 0
KFL1 142250Z 28012KT 29/01 A304 RMK A01 T02910008  RH  016%=      5-min Rain = 0
KFL1 142251Z 27012KT 29/02 A304 RMK A01 T02850016  RH  018%=      5-min Rain = 0
KFL1 142252Z 27011KT 28/M01 A3039 RMK A01 T02801012  RH  015%=      5-min Rain = 0
KFL1 142253Z 29013KT 28/M00 A3039 RMK A01 T02801004  RH  016%=      5-min Rain = 0
KFL1 142254Z 28012KT 28/01 A3039 RMK A01 T02780007  RH  017%=      5-min Rain = 0
KFL1 142255Z 29010G15KT 28/01 A3039 RMK A01 T02750009  RH  018%=      5-min Rain = 0
KFL1 142256Z 27010KT 27/M00 A3039 RMK A01 T02741001  RH  017%=      5-min Rain = 0
KFL1 142257Z 26008KT 28/00 A3039 RMK A01 T02770002  RH  017%=      5-min Rain = 0
KFL1 142258Z 25009KT 28/M00 A3039 RMK A01 T02801003  RH  016%=      5-min Rain = 0
KFL1 142259Z 24010KT 28/M01 A3039 RMK A01 T02841009  RH  015%=      5-min Rain = 0
KFL1 142300Z 24007KT 29/M01 A3039 RMK A01 T02851014  RH  014%=      5-min Rain = 0
KFL1 142301Z 27009KT 29/M01 A3039 RMK A01 T02861009  RH  015%=      5-min Rain = 0
KFL1 142302Z 31009KT 29/01 A3039 RMK A01 T02880013  RH  017%=      5-min Rain = 0
KFL1 142303Z 30011KT 29/M01 A3039 RMK A01 T02881006  RH  015%=      5-min Rain = 0
KFL1 142304Z 33015KT 29/M01 A3039 RMK A01 T02871013  RH  014%=      5-min Rain = 0
KFL1 142305Z 33014KT 29/M01 A3039 RMK A01 T02871006  RH  015%=      5-min Rain = 0
KFL1 142306Z 32011KT 29/M01 A3039 RMK A01 T02871012  RH  014%=      5-min Rain = 0
KFL1 142307Z 31012KT 29/M02 A3039 RMK A01 T02861021  RH  013%=      5-min Rain = 0
KFL1 142308Z 30012KT 29/M02 A3039 RMK A01 T02861016  RH  014%=      5-min Rain = 0
KFL1 142309Z 29010KT 29/M00 A3039 RMK A01 T02871004  RH  015%=      5-min Rain = 0
KFL1 142310Z 31011G16KT 29/01 A3039 RMK A01 T02870014  RH  017%=      5-min Rain = 0
KFL1 142311Z 29013KT 29/01 A3039 RMK A01 T02860008  RH  017%=      5-min Rain = 0
KFL1 142312Z 29013G18KT 29/01 A3039 RMK A01 T02870005  RH  016%=      5-min Rain = 0
KFL1 142313Z 32013KT 29/M01 A3039 RMK A01 T02851010  RH  015%=      5-min Rain = 0
KFL1 142314Z 32010KT 28/M02 A3039 RMK A01 T02831021  RH  014%=      5-min Rain = 0
KFL1 142315Z 31010KT 28/M02 A3039 RMK A01 T02841017  RH  014%=      5-min Rain = 0
KFL1 142316Z 33010KT 28/M03 A3039 RMK A01 T02841028  RH  013%=      5-min Rain = 0
KFL1 142317Z 34010KT 28/M02 A3039 RMK A01 T02841015  RH  014%=      5-min Rain = 0
KFL1 142318Z 33010KT 29/M02 A3039 RMK A01 T02851022  RH  013%=      5-min Rain = 0
KFL1 142319Z 32008KT 28/M01 A3039 RMK A01 T02841010  RH  015%=      5-min Rain = 0
KFL1 142320Z 32012KT 29/M00 A3039 RMK A01 T02861004  RH  015%=      5-min Rain = 0
KFL1 142321Z 31011KT 29/00 A3039 RMK A01 T02870002  RH  016%=      5-min Rain = 0
KFL1 142322Z 31014KT 29/01 A3039 RMK A01 T02880005  RH  016%=      5-min Rain = 0
KFL1 142323Z 31016KT 29/M03 A3039 RMK A01 T02861027  RH  013%=      5-min Rain = 0
KFL1 142324Z 30013KT 29/M02 A3039 RMK A01 T02851021  RH  014%=      5-min Rain = 0
KFL1 142325Z 31012KT 28/M03 A3039 RMK A01 T02821028  RH  013%=      5-min Rain = 0
KFL1 142326Z 31009KT 28/M01 A3039 RMK A01 T02821008  RH  015%=      5-min Rain = 0
KFL1 142327Z 31009KT 28/03 A3039 RMK A01 T02810027  RH  019%=      5-min Rain = 0
KFL1 142328Z 31013KT 28/M00 A3039 RMK A01 T02781002  RH  016%=      5-min Rain = 0
KFL1 142329Z 31011G16KT 28/M02 A3039 RMK A01 T02771019  RH  014%=      5-min Rain = 0
KFL1 142330Z 32012KT 28/M03 A3039 RMK A01 T02771027  RH  013%=      5-min Rain = 0
KFL1 142331Z 33011KT 28/M03 A3039 RMK A01 T02801030  RH  013%=      5-min Rain = 0
KFL1 142332Z 34011KT 28/M02 A3039 RMK A01 T02811024  RH  013%=      5-min Rain = 0
KFL1 142333Z 31014KT 28/M01 A3039 RMK A01 T02801012  RH  015%=      5-min Rain = 0
KFL1 142334Z 29013KT 28/M02 A3039 RMK A01 T02791015  RH  015%=      5-min Rain = 0
KFL1 142335Z 31016KT 28/M01 A3039 RMK A01 T02771007  RH  016%=      5-min Rain = 0
KFL1 142336Z 30014KT 28/M03 A3039 RMK A01 T02761033  RH  013%=      5-min Rain = 0
KFL1 142337Z 30016KT 28/M03 A3039 RMK A01 T02761029  RH  013%=      5-min Rain = 0
KFL1 142338Z 29015KT 28/M02 A3039 RMK A01 T02781022  RH  014%=      5-min Rain = 0
KFL1 142339Z 30014KT 28/M02 A3039 RMK A01 T02761022  RH  014%=      5-min Rain = 0
KFL1 142340Z 30013KT 28/M02 A3039 RMK A01 T02761021  RH  014%=      5-min Rain = 0
KFL1 142341Z 28015KT 28/M00 A3039 RMK A01 T02751001  RH  017%=      5-min Rain = 0
KFL1 142342Z 28012KT 27/00 A3039 RMK A01 T02710000  RH  017%=      5-min Rain = 0
KFL1 142343Z 28012KT 27/01 A3039 RMK A01 T02680012  RH  019%=      5-min Rain = 0
KFL1 142344Z 28012KT 27/M01 A3039 RMK A01 T02651005  RH  017%=      5-min Rain = 0
KFL1 142345Z 28009KT 27/M01 A3039 RMK A01 T02661005  RH  017%=      5-min Rain = 0
KFL1 142346Z 28008KT 27/M01 A3039 RMK A01 T02671006  RH  017%=      5-min Rain = 0
KFL1 142347Z 28008KT 27/M01 A3039 RMK A01 T02671010  RH  016%=      5-min Rain = 0
KFL1 142348Z 27009KT 27/02 A3039 RMK A01 T02680016  RH  019%=      5-min Rain = 0
KFL1 142349Z 28010KT 27/M01 A3039 RMK A01 T02691007  RH  016%=      5-min Rain = 0
KFL1 142350Z 29011KT 27/01 A3039 RMK A01 T02680005  RH  018%=      5-min Rain = 0
KFL1 142351Z 29009KT 27/02 A3039 RMK A01 T02680016  RH  019%=      5-min Rain = 0
KFL1 142352Z 29011KT 27/00 A3039 RMK A01 T02680002  RH  018%=      5-min Rain = 0
KFL1 142353Z 29010KT 27/02 A3039 RMK A01 T02680019  RH  020%=      5-min Rain = 0
KFL1 142354Z 29008KT 27/01 A3039 RMK A01 T02650010  RH  019%=      5-min Rain = 0
KFL1 142355Z 30009KT 26/00 A3039 RMK A01 T02640004  RH  018%=      5-min Rain = 0
KFL1 142356Z 30009KT 26/01 A3039 RMK A01 T02630012  RH  019%=      5-min Rain = 0
KFL1 142357Z 29010KT 26/00 A3039 RMK A01 T02640003  RH  018%=      5-min Rain = 0
KFL1 142358Z 29012KT 26/00 A3039 RMK A01 T02620003  RH  018%=      5-min Rain = 0
KFL1 142359Z 29013KT 26/M01 A3039 RMK A01 T02621006  RH  017%=      5-min Rain = 0
KFL1 150000Z 30012KT 26/01 A3039 RMK A01 T02610007  RH  019%=      5-min Rain = 0
KFL1 150001Z 29009KT 26/01 A3039 RMK A01 T02610008  RH  019%=      5-min Rain = 0
KFL1 150002Z 26011KT 26/M01 A3039 RMK A01 T02611006  RH  017%=      5-min Rain = 0
KFL1 150003Z 28014KT 26/M01 A3039 RMK A01 T02621005  RH  017%=      5-min Rain = 0
KFL1 150004Z 29016KT 26/01 A3039 RMK A01 T02640008  RH  019%=      5-min Rain = 0
KFL1 150005Z 29012KT 26/01 A3039 RMK A01 T02620009  RH  019%=      5-min Rain = 0
KFL1 150006Z 28010KT 26/00 A3039 RMK A01 T025900-0  RH  018%=      5-min Rain = 0
KFL1 150007Z 28010KT 26/01 A3039 RMK A01 T02600010  RH  020%=      5-min Rain = 0
KFL1 150008Z 27008KT 26/M00 A3039 RMK A01 T02601001  RH  018%=      5-min Rain = 0
KFL1 150009Z 27012KT 26/02 A3039 RMK A01 T02620015  RH  020%=      5-min Rain = 0
KFL1 150010Z 26012KT 27/00 A3039 RMK A01 T02650000  RH  018%=      5-min Rain = 0
KFL1 150011Z 26009KT 27/M01 A3039 RMK A01 T02651008  RH  017%=      5-min Rain = 0
KFL1 150012Z 26009KT 27/M02 A3039 RMK A01 T02681017  RH  015%=      5-min Rain = 0
KFL1 150013Z 26009KT 27/M01 A3039 RMK A01 T02681014  RH  016%=      5-min Rain = 0
KFL1 150014Z 27008KT 27/M00 A3039 RMK A01 T02691002  RH  017%=      5-min Rain = 0
KFL1 150015Z 25011KT 27/M01 A3039 RMK A01 T02691011  RH  016%=      5-min Rain = 0
KFL1 150016Z 25010KT 27/M02 A3039 RMK A01 T02681020  RH  015%=      5-min Rain = 0
KFL1 150017Z 26010KT 27/M02 A3039 RMK A01 T02701023  RH  015%=      5-min Rain = 0
KFL1 150018Z 27009G14KT 27/M02 A3039 RMK A01 T02691023  RH  015%=      5-min Rain = 0
KFL1 150019Z 28007KT 27/M01 A3039 RMK A01 T02681005  RH  017%=      5-min Rain = 0
KFL1 150020Z 27008KT 27/M00 A3039 RMK A01 T02681002  RH  017%=      5-min Rain = 0
KFL1 150021Z 27010KT 27/M00 A3039 RMK A01 T02671003  RH  017%=      5-min Rain = 0
KFL1 150022Z 27010KT 27/00 A3039 RMK A01 T02660002  RH  018%=      5-min Rain = 0
KFL1 150023Z 28009KT 27/M00 A3039 RMK A01 T02651003  RH  017%=      5-min Rain = 0
KFL1 150024Z 29012KT 26/01 A3039 RMK A01 T02640005  RH  018%=      5-min Rain = 0
KFL1 150025Z 28009KT 26/01 A3039 RMK A01 T02620012  RH  020%=      5-min Rain = 0
KFL1 150026Z 28010KT 26/M00 A3039 RMK A01 T02601004  RH  018%=      5-min Rain = 0
KFL1 150027Z 28010KT 26/M00 A3039 RMK A01 T02611004  RH  018%=      5-min Rain = 0
KFL1 150028Z 28012KT 26/M01 A3039 RMK A01 T02601010  RH  017%=      5-min Rain = 0
KFL1 150029Z 29009KT 26/01 A3039 RMK A01 T02600009  RH  019%=      5-min Rain = 0
KFL1 150030Z 27009KT 26/01 A3039 RMK A01 T02570006  RH  019%=      5-min Rain = 0
KFL1 150031Z 27008KT 26/00 A3039 RMK A01 T02570003  RH  019%=      5-min Rain = 0
KFL1 150032Z 26009KT 26/M00 A3039 RMK A01 T02581004  RH  018%=      5-min Rain = 0
KFL1 150033Z 27007KT 26/M01 A3039 RMK A01 T02611011  RH  017%=      5-min Rain = 0
KFL1 150034Z 26011KT 26/M02 A3039 RMK A01 T02621020  RH  016%=      5-min Rain = 0
KFL1 150035Z 26011KT 26/M02 A3039 RMK A01 T02631023  RH  015%=      5-min Rain = 0
KFL1 150036Z 26009KT 26/M02 A3039 RMK A01 T02641020  RH  015%=      5-min Rain = 0
KFL1 150037Z 26011KT 26/M02 A3039 RMK A01 T02631018  RH  016%=      5-min Rain = 0
KFL1 150038Z 27013KT 26/M01 A3039 RMK A01 T02641009  RH  017%=      5-min Rain = 0
KFL1 150039Z 26011KT 26/M02 A3039 RMK A01 T02631024  RH  015%=      5-min Rain = 0
KFL1 150040Z 27007KT 26/M02 A3039 RMK A01 T02631016  RH  016%=      5-min Rain = 0
KFL1 150041Z 29010KT 26/01 A3039 RMK A01 T02620005  RH  019%=      5-min Rain = 0
KFL1 150042Z 28011KT 26/01 A3039 RMK A01 T02610008  RH  019%=      5-min Rain = 0
KFL1 150043Z 28011KT 26/00 A3038 RMK A01 T02580003  RH  019%=      5-min Rain = 0
KFL1 150044Z 27010KT 26/01 A3038 RMK A01 T02560011  RH  020%=      5-min Rain = 0
KFL1 150045Z 27012KT 26/M01 A3038 RMK A01 T02551006  RH  018%=      5-min Rain = 0
KFL1 150046Z 26011KT 26/M01 A3038 RMK A01 T02551014  RH  017%=      5-min Rain = 0
KFL1 150047Z 28008KT 26/M01 A3039 RMK A01 T02581009  RH  017%=      5-min Rain = 0
KFL1 150048Z 28008KT 26/00 A3039 RMK A01 T02570001  RH  019%=      5-min Rain = 0
KFL1 150049Z 28009KT 26/01 A3039 RMK A01 T02570010  RH  020%=      5-min Rain = 0
KFL1 150050Z 28008KT 25/03 A3039 RMK A01 T02540029  RH  023%=      5-min Rain = 0
KFL1 150051Z 28007KT 25/02 A3039 RMK A01 T02520022  RH  022%=      5-min Rain = 0
KFL1 150052Z 27007KT 25/02 A3039 RMK A01 T02500021  RH  023%=      5-min Rain = 0
KFL1 150053Z 27010KT 25/01 A3039 RMK A01 T02500011  RH  021%=      5-min Rain = 0
KFL1 150054Z 27008KT 25/M00 A3038 RMK A01 T02511001  RH  019%=      5-min Rain = 0
KFL1 150055Z 27007KT 25/M01 A3038 RMK A01 T02541007  RH  018%=      5-min Rain = 0
KFL1 150056Z 26007KT 25/00 A3038 RMK A01 T02540001  RH  019%=      5-min Rain = 0
KFL1 150057Z 26008KT 26/00 A3038 RMK A01 T02550003  RH  019%=      5-min Rain = 0
KFL1 150058Z 26008KT 26/M00 A3038 RMK A01 T02561001  RH  019%=      5-min Rain = 0
KFL1 150059Z 26007KT 26/00 A3038 RMK A01 T02560000  RH  019%=      5-min Rain = 0
KFL1 150100Z 27007KT 26/M01 A3038 RMK A01 T02551005  RH  018%=      5-min Rain = 0
KFL1 150101Z 26007KT 25/01 A3038 RMK A01 T02540012  RH  021%=      5-min Rain = 0
KFL1 150102Z 27008KT 25/02 A3038 RMK A01 T02540019  RH  022%=      5-min Rain = 0
KFL1 150103Z 26009KT 25/M00 A3038 RMK A01 T02521001  RH  019%=      5-min Rain = 0
KFL1 150104Z 27007KT 25/M01 A3038 RMK A01 T02531009  RH  018%=      5-min Rain = 0
KFL1 150105Z 27009KT 25/M01 A3038 RMK A01 T02521006  RH  018%=      5-min Rain = 0
KFL1 150106Z 29012KT 25/00 A3038 RMK A01 T02540004  RH  019%=      5-min Rain = 0
KFL1 150107Z 29008KT 25/01 A3038 RMK A01 T02470010  RH  021%=      5-min Rain = 0
KFL1 150108Z 31008KT 25/01 A3038 RMK A01 T02450010  RH  021%=      5-min Rain = 0
KFL1 150109Z 31008KT 24/M00 A3038 RMK A01 T02441003  RH  020%=      5-min Rain = 0
KFL1 150110Z 30009KT 24/00 A3038 RMK A01 T02440001  RH  020%=      5-min Rain = 0
KFL1 150111Z 30009KT 24/00 A3038 RMK A01 T024300-0  RH  020%=      5-min Rain = 0
KFL1 150112Z 30008KT 24/01 A3038 RMK A01 T02430014  RH  022%=      5-min Rain = 0
KFL1 150113Z 30008KT 24/03 A3038 RMK A01 T02400027  RH  025%=      5-min Rain = 0
KFL1 150114Z 28007KT 24/03 A3038 RMK A01 T02370027  RH  025%=      5-min Rain = 0
KFL1 150115Z 28007KT 24/02 A3038 RMK A01 T02360021  RH  024%=      5-min Rain = 0
KFL1 150116Z 27008KT 24/01 A3039 RMK A01 T02350014  RH  023%=      5-min Rain = 0
KFL1 150117Z 28007KT 24/01 A3039 RMK A01 T02350011  RH  023%=      5-min Rain = 0
KFL1 150118Z 28006KT 23/02 A3039 RMK A01 T02340018  RH  024%=      5-min Rain = 0
KFL1 150119Z 27006KT 23/02 A3039 RMK A01 T02340017  RH  024%=      5-min Rain = 0
KFL1 150120Z 27006KT 23/02 A3039 RMK A01 T02330018  RH  024%=      5-min Rain = 0
KFL1 150121Z 27006KT 23/01 A3039 RMK A01 T02320013  RH  024%=      5-min Rain = 0
KFL1 150122Z 28006KT 23/02 A3039 RMK A01 T02320019  RH  025%=      5-min Rain = 0
KFL1 150123Z 28007KT 23/03 A3039 RMK A01 T02300027  RH  026%=      5-min Rain = 0
KFL1 150124Z 28008KT 23/02 A3039 RMK A01 T02280017  RH  025%=      5-min Rain = 0
KFL1 150125Z 29008KT 23/01 A3039 RMK A01 T02280014  RH  024%=      5-min Rain = 0
KFL1 150126Z 29008KT 23/02 A3039 RMK A01 T02270016  RH  025%=      5-min Rain = 0
KFL1 150127Z 27006KT 23/02 A3039 RMK A01 T02270017  RH  025%=      5-min Rain = 0
KFL1 150128Z 27008KT 23/01 A3039 RMK A01 T02270010  RH  024%=      5-min Rain = 0
KFL1 150129Z 27008KT 23/01 A3039 RMK A01 T02270005  RH  023%=      5-min Rain = 0
KFL1 150130Z 28007KT 23/01 A3039 RMK A01 T02270013  RH  024%=      5-min Rain = 0
KFL1 150131Z 28007KT 23/02 A3039 RMK A01 T02250024  RH  027%=      5-min Rain = 0
KFL1 150132Z 28006KT 22/03 A3039 RMK A01 T02220026  RH  028%=      5-min Rain = 0
KFL1 150133Z 28006KT 22/02 A3039 RMK A01 T02200016  RH  026%=      5-min Rain = 0
KFL1 150134Z 27007KT 22/01 A3039 RMK A01 T02190009  RH  025%=      5-min Rain = 0
KFL1 150135Z 27007KT 22/01 A3039 RMK A01 T02200007  RH  024%=      5-min Rain = 0
KFL1 150136Z 27007KT 22/01 A3039 RMK A01 T02210006  RH  024%=      5-min Rain = 0
KFL1 150137Z 27006KT 22/03 A3039 RMK A01 T02210026  RH  028%=      5-min Rain = 0
KFL1 150138Z 27005KT 22/02 A3039 RMK A01 T02200022  RH  027%=      5-min Rain = 0
KFL1 150139Z 28006KT 22/02 A3039 RMK A01 T02160022  RH  028%=      5-min Rain = 0
KFL1 150140Z 28005KT 21/03 A3039 RMK A01 T02140028  RH  029%=      5-min Rain = 0
KFL1 150141Z 28005KT 21/03 A3039 RMK A01 T02110033  RH  031%=      5-min Rain = 0
KFL1 150142Z 28005KT 21/03 A3039 RMK A01 T02070033  RH  032%=      5-min Rain = 0
KFL1 150143Z 28005KT 21/03 A3039 RMK A01 T02060029  RH  031%=      5-min Rain = 0
KFL1 150144Z 28005KT 20/03 A3039 RMK A01 T02040029  RH  031%=      5-min Rain = 0
KFL1 150145Z 28005KT 20/03 A3039 RMK A01 T02040031  RH  032%=      5-min Rain = 0
KFL1 150146Z 28005KT 20/03 A3039 RMK A01 T02030031  RH  032%=      5-min Rain = 0
KFL1 150147Z 28005KT 20/03 A3039 RMK A01 T02010029  RH  032%=      5-min Rain = 0
KFL1 150148Z 28006KT 20/03 A3039 RMK A01 T02000030  RH  033%=      5-min Rain = 0
KFL1 150149Z 28006KT 20/03 A3039 RMK A01 T02000030  RH  032%=      5-min Rain = 0
KFL1 150150Z 28006KT 20/03 A3039 RMK A01 T02000032  RH  033%=      5-min Rain = 0
KFL1 150151Z 28005KT 20/03 A3039 RMK A01 T02000033  RH  033%=      5-min Rain = 0
KFL1 150152Z 28005KT 20/03 A3039 RMK A01 T01980031  RH  033%=      5-min Rain = 0
KFL1 150153Z 29005KT 20/03 A3039 RMK A01 T01980027  RH  032%=      5-min Rain = 0
KFL1 150154Z 29004KT 20/03 A3039 RMK A01 T01960025  RH  032%=      5-min Rain = 0
KFL1 150155Z 29004KT 20/02 A3039 RMK A01 T01950021  RH  031%=      5-min Rain = 0
KFL1 150156Z 29004KT 20/02 A3039 RMK A01 T01960023  RH  032%=      5-min Rain = 0
KFL1 150157Z 29004KT 20/03 A3039 RMK A01 T01950027  RH  033%=      5-min Rain = 0
KFL1 150158Z 29004KT 19/03 A3039 RMK A01 T01920028  RH  034%=      5-min Rain = 0
KFL1 150159Z 29003KT 19/03 A3039 RMK A01 T01910033  RH  035%=      5-min Rain = 0
KFL1 150200Z 29003KT 19/03 A3039 RMK A01 T01900034  RH  036%=      5-min Rain = 0
KFL1 150201Z 29004KT 19/03 A3039 RMK A01 T01890028  RH  034%=      5-min Rain = 0
KFL1 150202Z 30004KT 19/03 A3039 RMK A01 T01880034  RH  036%=      5-min Rain = 0
KFL1 150203Z 30004KT 19/06 A3039 RMK A01 T01850056  RH  043%=      5-min Rain = 0
KFL1 150204Z 29003KT 18/05 A3039 RMK A01 T01800050  RH  042%=      5-min Rain = 0
KFL1 150205Z 30003KT 18/06 A3039 RMK A01 T01790061  RH  046%=      5-min Rain = 0
KFL1 150206Z 30003KT 17/07 A3039 RMK A01 T01740071  RH  051%=      5-min Rain = 0
KFL1 150207Z 31003KT 17/07 A3039 RMK A01 T01680072  RH  053%=      5-min Rain = 0
KFL1 150208Z 30003KT 16/06 A3039 RMK A01 T01630056  RH  049%=      5-min Rain = 0
KFL1 150209Z 30003KT 17/06 A3039 RMK A01 T01660058  RH  049%=      5-min Rain = 0
KFL1 150210Z 31003KT 16/08 A3039 RMK A01 T01630076  RH  056%=      5-min Rain = 0
KFL1 150211Z 31003KT 16/07 A3039 RMK A01 T01560071  RH  057%=      5-min Rain = 0
KFL1 150212Z 31004KT 15/07 A3039 RMK A01 T01520072  RH  059%=      5-min Rain = 0
KFL1 150213Z 31004KT 15/07 A3039 RMK A01 T01490074  RH  061%=      5-min Rain = 0
KFL1 150214Z 31004KT 15/08 A3039 RMK A01 T01490075  RH  061%=      5-min Rain = 0
KFL1 150215Z 32004KT 15/08 A3039 RMK A01 T01460076  RH  063%=      5-min Rain = 0
KFL1 150216Z 32004KT 14/08 A3039 RMK A01 T01430077  RH  064%=      5-min Rain = 0
KFL1 150217Z 32004KT 14/07 A3039 RMK A01 T01400074  RH  064%=      5-min Rain = 0
KFL1 150218Z 32004KT 14/07 A3039 RMK A01 T01390073  RH  064%=      5-min Rain = 0
KFL1 150219Z 32004KT 14/07 A3039 RMK A01 T01370071  RH  064%=      5-min Rain = 0
KFL1 150220Z 32004KT 14/07 A3039 RMK A01 T01370070  RH  064%=      5-min Rain = 0
KFL1 150221Z 32004KT 14/07 A304 RMK A01 T01360069  RH  064%=      5-min Rain = 0
KFL1 150222Z 32003KT 14/07 A304 RMK A01 T01350069  RH  064%=      5-min Rain = 0
KFL1 150223Z 33003KT 13/07 A304 RMK A01 T01340068  RH  064%=      5-min Rain = 0
KFL1 150224Z 34003KT 14/07 A304 RMK A01 T01350065  RH  063%=      5-min Rain = 0
KFL1 150225Z 34004KT 13/06 A304 RMK A01 T01340060  RH  061%=      5-min Rain = 0
KFL1 150226Z 34004KT 13/06 A304 RMK A01 T01330057  RH  060%=      5-min Rain = 0
KFL1 150227Z 34004KT 14/06 A304 RMK A01 T01360057  RH  059%=      5-min Rain = 0
KFL1 150228Z 35004KT 14/06 A304 RMK A01 T01350057  RH  059%=      5-min Rain = 0
KFL1 150229Z 36004KT 14/06 A304 RMK A01 T01360055  RH  058%=      5-min Rain = 0
KFL1 150230Z 36004KT 14/05 A304 RMK A01 T01360054  RH  058%=      5-min Rain = 0
KFL1 150231Z 00004KT 14/05 A304 RMK A01 T01370053  RH  057%=      5-min Rain = 0
KFL1 150232Z 00004KT 14/06 A304 RMK A01 T01370055  RH  058%=      5-min Rain = 0
KFL1 150233Z 00005KT 14/06 A304 RMK A01 T01360055  RH  058%=      5-min Rain = 0
KFL1 150234Z 00005KT 14/05 A304 RMK A01 T01380052  RH  056%=      5-min Rain = 0
KFL1 150235Z 00005KT 14/05 A304 RMK A01 T01370048  RH  055%=      5-min Rain = 0
KFL1 150236Z 00005KT 14/05 A304 RMK A01 T01380048  RH  054%=      5-min Rain = 0
KFL1 150237Z 00005KT 14/05 A3041 RMK A01 T01390048  RH  054%=      5-min Rain = 0
KFL1 150238Z 01006KT 14/05 A3041 RMK A01 T01390047  RH  054%=      5-min Rain = 0
KFL1 150239Z 00006KT 14/05 A3041 RMK A01 T01400049  RH  054%=      5-min Rain = 0
KFL1 150240Z 00005KT 14/05 A3041 RMK A01 T01400050  RH  055%=      5-min Rain = 0
KFL1 150241Z 00005KT 14/05 A3041 RMK A01 T01400054  RH  056%=      5-min Rain = 0
KFL1 150242Z 01005KT 14/05 A3041 RMK A01 T01350050  RH  056%=      5-min Rain = 0
KFL1 150243Z 01005KT 13/05 A3041 RMK A01 T01340047  RH  055%=      5-min Rain = 0
KFL1 150244Z 01006KT 13/04 A3041 RMK A01 T01320044  RH  055%=      5-min Rain = 0
KFL1 150245Z 01006KT 13/04 A3041 RMK A01 T01330044  RH  055%=      5-min Rain = 0
KFL1 150246Z 03005KT 13/04 A3041 RMK A01 T01330044  RH  055%=      5-min Rain = 0
KFL1 150247Z 03005KT 13/04 A3041 RMK A01 T01330039  RH  053%=      5-min Rain = 0
KFL1 150248Z 03005KT 13/04 A3041 RMK A01 T01330036  RH  051%=      5-min Rain = 0
KFL1 150249Z 03004KT 14/04 A3041 RMK A01 T01350038  RH  052%=      5-min Rain = 0
KFL1 150250Z 02005KT 13/04 A3041 RMK A01 T01340040  RH  053%=      5-min Rain = 0
KFL1 150251Z 02006KT 13/04 A3041 RMK A01 T01320037  RH  052%=      5-min Rain = 0
KFL1 150252Z 03006KT 13/04 A3041 RMK A01 T01320035  RH  052%=      5-min Rain = 0
KFL1 150253Z 03006KT 13/04 A3041 RMK A01 T01310036  RH  053%=      5-min Rain = 0
KFL1 150254Z 02007KT 13/04 A3041 RMK A01 T01300038  RH  053%=      5-min Rain = 0
KFL1 150255Z 03006KT 13/04 A3041 RMK A01 T01290039  RH  054%=      5-min Rain = 0
KFL1 150256Z 03005KT 13/04 A3041 RMK A01 T01290041  RH  055%=      5-min Rain = 0
KFL1 150257Z 03006KT 13/04 A3041 RMK A01 T01280041  RH  056%=      5-min Rain = 0
KFL1 150258Z 03006KT 13/04 A3041 RMK A01 T01260040  RH  056%=      5-min Rain = 0
KFL1 150259Z 03005KT 13/04 A3041 RMK A01 T01250040  RH  056%=      5-min Rain = 0
KFL1 150300Z 03005KT 13/04 A3041 RMK A01 T01250041  RH  057%=      5-min Rain = 0
KFL1 150301Z 02006KT 12/04 A3042 RMK A01 T01240040  RH  057%=      5-min Rain = 0
KFL1 150302Z 02006KT 12/04 A3042 RMK A01 T01230040  RH  057%=      5-min Rain = 0
KFL1 150303Z 02006KT 12/04 A3042 RMK A01 T01230040  RH  057%=      5-min Rain = 0
KFL1 150304Z 03006KT 12/04 A3042 RMK A01 T01220039  RH  057%=      5-min Rain = 0
KFL1 150305Z 03006KT 12/04 A3042 RMK A01 T01240039  RH  056%=      5-min Rain = 0
KFL1 150306Z 03006KT 12/04 A3042 RMK A01 T01230038  RH  056%=      5-min Rain = 0
KFL1 150307Z 03006KT 12/04 A3042 RMK A01 T01230036  RH  055%=      5-min Rain = 0
KFL1 150308Z 02006KT 12/03 A3042 RMK A01 T01230034  RH  055%=      5-min Rain = 0
KFL1 150309Z 03007KT 13/04 A3042 RMK A01 T01250036  RH  055%=      5-min Rain = 0
KFL1 150310Z 03007KT 12/03 A3042 RMK A01 T01240033  RH  054%=      5-min Rain = 0
KFL1 150311Z 03006KT 13/03 A3042 RMK A01 T01270031  RH  052%=      5-min Rain = 0
KFL1 150312Z 03005KT 13/03 A3042 RMK A01 T01270033  RH  053%=      5-min Rain = 0
KFL1 150313Z 03005KT 13/04 A3042 RMK A01 T01280035  RH  053%=      5-min Rain = 0
KFL1 150314Z 03005KT 13/03 A3042 RMK A01 T01270031  RH  052%=      5-min Rain = 0
KFL1 150315Z 03005KT 13/02 A3042 RMK A01 T01280023  RH  049%=      5-min Rain = 0
KFL1 150316Z 03005KT 13/02 A3042 RMK A01 T01320024  RH  048%=      5-min Rain = 0
KFL1 150317Z 03006KT 13/03 A3042 RMK A01 T01310034  RH  052%=      5-min Rain = 0
KFL1 150318Z 03005KT 13/03 A3042 RMK A01 T01290033  RH  052%=      5-min Rain = 0
KFL1 150319Z 03005KT 13/04 A3042 RMK A01 T01290036  RH  053%=      5-min Rain = 0
KFL1 150320Z 03005KT 13/04 A3042 RMK A01 T01270039  RH  055%=      5-min Rain = 0
KFL1 150321Z 03005KT 12/04 A3042 RMK A01 T01240039  RH  056%=      5-min Rain = 0
KFL1 150322Z 03006KT 12/04 A3042 RMK A01 T01230040  RH  057%=      5-min Rain = 0
KFL1 150323Z 03006KT 12/04 A3042 RMK A01 T01210039  RH  057%=      5-min Rain = 0
KFL1 150324Z 03006KT 12/04 A3042 RMK A01 T01210037  RH  057%=      5-min Rain = 0
KFL1 150325Z 03006KT 12/04 A3042 RMK A01 T01210036  RH  056%=      5-min Rain = 0
KFL1 150326Z 03005KT 12/04 A3042 RMK A01 T01200035  RH  056%=      5-min Rain = 0
KFL1 150327Z 03005KT 12/04 A3042 RMK A01 T01200038  RH  057%=      5-min Rain = 0
KFL1 150328Z 03005KT 12/04 A3042 RMK A01 T01200036  RH  056%=      5-min Rain = 0
KFL1 150329Z 03006KT 12/03 A3042 RMK A01 T01200031  RH  055%=      5-min Rain = 0
KFL1 150330Z 04006KT 12/02 A3042 RMK A01 T01220020  RH  050%=      5-min Rain = 0
KFL1 150331Z 03006KT 13/02 A3042 RMK A01 T01260023  RH  050%=      5-min Rain = 0
KFL1 150332Z 03005KT 13/02 A3042 RMK A01 T01290018  RH  047%=      5-min Rain = 0
KFL1 150333Z 03006KT 13/03 A3042 RMK A01 T01300026  RH  049%=      5-min Rain = 0
KFL1 150334Z 03005KT 13/03 A3042 RMK A01 T01300028  RH  050%=      5-min Rain = 0
KFL1 150335Z 04006KT 13/03 A3042 RMK A01 T01300029  RH  050%=      5-min Rain = 0
KFL1 150336Z 03006KT 13/02 A3042 RMK A01 T01310024  RH  048%=      5-min Rain = 0
KFL1 150337Z 03006KT 13/03 A3042 RMK A01 T01300027  RH  050%=      5-min Rain = 0
KFL1 150338Z 03005KT 13/03 A3042 RMK A01 T01290028  RH  050%=      5-min Rain = 0
KFL1 150339Z 03006KT 13/02 A3042 RMK A01 T01280022  RH  048%=      5-min Rain = 0
KFL1 150340Z 02005KT 13/03 A3043 RMK A01 T01290031  RH  051%=      5-min Rain = 0
KFL1 150341Z 03006KT 13/03 A3043 RMK A01 T01270034  RH  053%=      5-min Rain = 0
KFL1 150342Z 04006KT 13/03 A3043 RMK A01 T01260025  RH  050%=      5-min Rain = 0
KFL1 150343Z 04007KT 13/01 A3043 RMK A01 T01280012  RH  045%=      5-min Rain = 0
KFL1 150344Z 04007KT 13/01 A3043 RMK A01 T01330008  RH  043%=      5-min Rain = 0
KFL1 150345Z 04008KT 14/01 A3043 RMK A01 T01390011  RH  042%=      5-min Rain = 0
KFL1 150346Z 03008KT 14/01 A3043 RMK A01 T01420013  RH  041%=      5-min Rain = 0
KFL1 150347Z 03007KT 14/01 A3043 RMK A01 T01430011  RH  041%=      5-min Rain = 0
KFL1 150348Z 03007KT 15/01 A3043 RMK A01 T01460010  RH  040%=      5-min Rain = 0
KFL1 150349Z 03007KT 15/01 A3043 RMK A01 T01460008  RH  039%=      5-min Rain = 0
KFL1 150350Z 03006KT 15/01 A3043 RMK A01 T01480010  RH  039%=      5-min Rain = 0
KFL1 150351Z 03006KT 15/02 A3043 RMK A01 T01490021  RH  042%=      5-min Rain = 0
KFL1 150352Z 02006KT 15/03 A3043 RMK A01 T01450025  RH  044%=      5-min Rain = 0
KFL1 150353Z 02007KT 14/03 A3043 RMK A01 T01380026  RH  047%=      5-min Rain = 0
KFL1 150354Z 02008KT 13/03 A3043 RMK A01 T01340031  RH  049%=      5-min Rain = 0
KFL1 150355Z 02008KT 13/03 A3043 RMK A01 T01300030  RH  051%=      5-min Rain = 0
KFL1 150356Z 02008KT 13/03 A3043 RMK A01 T01300031  RH  051%=      5-min Rain = 0
KFL1 150357Z 02009KT 13/03 A3043 RMK A01 T01300033  RH  052%=      5-min Rain = 0
KFL1 150358Z 02009KT 13/04 A3043 RMK A01 T01300035  RH  052%=      5-min Rain = 0
KFL1 150359Z 02009KT 13/04 A3043 RMK A01 T01300035  RH  052%=      5-min Rain = 0
KFL1 150400Z 02009KT 13/03 A3043 RMK A01 T01280034  RH  053%=      5-min Rain = 0
KFL1 150401Z 02009KT 13/04 A3043 RMK A01 T01280035  RH  053%=      5-min Rain = 0
KFL1 150402Z 01009KT 13/04 A3043 RMK A01 T01260035  RH  054%=      5-min Rain = 0
KFL1 150403Z 01009KT 13/03 A3043 RMK A01 T01250034  RH  054%=      5-min Rain = 0
KFL1 150404Z 01008KT 13/03 A3043 RMK A01 T01250032  RH  053%=      5-min Rain = 0
KFL1 150405Z 01009KT 13/03 A3043 RMK A01 T01250034  RH  054%=      5-min Rain = 0
KFL1 150406Z 01009KT 13/04 A3043 RMK A01 T01250036  RH  055%=      5-min Rain = 0
KFL1 150407Z 01009KT 12/04 A3043 RMK A01 T01240038  RH  056%=      5-min Rain = 0
KFL1 150408Z 01009KT 12/04 A3043 RMK A01 T01230035  RH  055%=      5-min Rain = 0
KFL1 150409Z 02009KT 12/03 A3043 RMK A01 T01220032  RH  054%=      5-min Rain = 0
KFL1 150410Z 02009KT 12/03 A3043 RMK A01 T01230033  RH  054%=      5-min Rain = 0
KFL1 150411Z 02008KT 12/03 A3043 RMK A01 T01240032  RH  054%=      5-min Rain = 0
KFL1 150412Z 02008KT 12/03 A3043 RMK A01 T01240029  RH  052%=      5-min Rain = 0
KFL1 150413Z 02008KT 13/03 A3043 RMK A01 T01260027  RH  051%=      5-min Rain = 0
KFL1 150414Z 02009KT 13/03 A3043 RMK A01 T01280029  RH  051%=      5-min Rain = 0
KFL1 150415Z 02008KT 13/03 A3043 RMK A01 T01280031  RH  052%=      5-min Rain = 0
KFL1 150416Z 02008KT 13/03 A3043 RMK A01 T01270029  RH  051%=      5-min Rain = 0
KFL1 150417Z 02008KT 13/03 A3043 RMK A01 T01270027  RH  051%=      5-min Rain = 0
KFL1 150418Z 02008KT 13/03 A3043 RMK A01 T01270030  RH  051%=      5-min Rain = 0
KFL1 150419Z 02008KT 13/03 A3043 RMK A01 T01270033  RH  052%=      5-min Rain = 0
KFL1 150420Z 02008KT 13/03 A3043 RMK A01 T01270031  RH  052%=      5-min Rain = 0
KFL1 150421Z 01009KT 13/03 A3043 RMK A01 T01260030  RH  052%=      5-min Rain = 0
KFL1 150422Z 01009KT 13/03 A3043 RMK A01 T01260034  RH  053%=      5-min Rain = 0
KFL1 150423Z 01009KT 12/04 A3043 RMK A01 T01240035  RH  055%=      5-min Rain = 0
KFL1 150424Z 01009KT 12/03 A3043 RMK A01 T01200033  RH  055%=      5-min Rain = 0
KFL1 150425Z 01009KT 12/03 A3043 RMK A01 T01200034  RH  055%=      5-min Rain = 0
KFL1 150426Z 01009KT 12/03 A3043 RMK A01 T01180033  RH  056%=      5-min Rain = 0
KFL1 150427Z 01008KT 12/04 A3043 RMK A01 T01180035  RH  057%=      5-min Rain = 0
KFL1 150428Z 01008KT 12/04 A3043 RMK A01 T01160035  RH  057%=      5-min Rain = 0
KFL1 150429Z 01008KT 12/04 A3043 RMK A01 T01160035  RH  057%=      5-min Rain = 0
KFL1 150430Z 02008KT 12/03 A3043 RMK A01 T01160029  RH  055%=      5-min Rain = 0
KFL1 150431Z 02008KT 12/02 A3043 RMK A01 T01190024  RH  052%=      5-min Rain = 0
KFL1 150432Z 02008KT 12/02 A3043 RMK A01 T01210020  RH  050%=      5-min Rain = 0
KFL1 150433Z 01008KT 13/02 A3043 RMK A01 T01250018  RH  048%=      5-min Rain = 0
KFL1 150434Z 02008KT 13/02 A3043 RMK A01 T01280021  RH  048%=      5-min Rain = 0
KFL1 150435Z 02008KT 13/02 A3043 RMK A01 T01290023  RH  048%=      5-min Rain = 0
KFL1 150436Z 02008KT 13/02 A3043 RMK A01 T01290022  RH  048%=      5-min Rain = 0
KFL1 150437Z 03008KT 13/02 A3043 RMK A01 T01290023  RH  049%=      5-min Rain = 0
KFL1 150438Z 03006KT 13/03 A3043 RMK A01 T01280025  RH  050%=      5-min Rain = 0
KFL1 150439Z 03006KT 13/03 A3043 RMK A01 T01270027  RH  051%=      5-min Rain = 0
KFL1 150440Z 03006KT 12/03 A3043 RMK A01 T01230027  RH  052%=      5-min Rain = 0
KFL1 150441Z 02008KT 12/03 A3043 RMK A01 T01210029  RH  053%=      5-min Rain = 0
KFL1 150442Z 02008KT 12/03 A3043 RMK A01 T01200027  RH  053%=      5-min Rain = 0
KFL1 150443Z 02008KT 12/02 A3043 RMK A01 T01210024  RH  052%=      5-min Rain = 0
KFL1 150444Z 02009KT 12/03 A3043 RMK A01 T01200026  RH  052%=      5-min Rain = 0
KFL1 150445Z 02008KT 12/03 A3043 RMK A01 T01200029  RH  054%=      5-min Rain = 0
KFL1 150446Z 02009KT 12/03 A3043 RMK A01 T01180030  RH  054%=      5-min Rain = 0
KFL1 150447Z 02009KT 12/03 A3043 RMK A01 T01170030  RH  055%=      5-min Rain = 0
KFL1 150448Z 01009KT 12/03 A3043 RMK A01 T01160030  RH  056%=      5-min Rain = 0
KFL1 150449Z 01009KT 12/03 A3043 RMK A01 T01150029  RH  056%=      5-min Rain = 0
KFL1 150450Z 01009KT 11/03 A3043 RMK A01 T01130029  RH  056%=      5-min Rain = 0
KFL1 150451Z 01008KT 11/03 A3043 RMK A01 T01130030  RH  057%=      5-min Rain = 0
KFL1 150452Z 01008KT 11/03 A3043 RMK A01 T01120031  RH  057%=      5-min Rain = 0
KFL1 150453Z 01007KT 11/03 A3043 RMK A01 T01100030  RH  057%=      5-min Rain = 0
KFL1 150454Z 03007KT 11/03 A3043 RMK A01 T01100028  RH  057%=      5-min Rain = 0
KFL1 150455Z 03006KT 11/03 A3043 RMK A01 T01110026  RH  056%=      5-min Rain = 0
KFL1 150456Z 03005KT 11/03 A3043 RMK A01 T01130027  RH  055%=      5-min Rain = 0
KFL1 150457Z 02006KT 11/03 A3043 RMK A01 T01140030  RH  056%=      5-min Rain = 0
KFL1 150458Z 02007KT 11/03 A3043 RMK A01 T01140028  RH  056%=      5-min Rain = 0
KFL1 150459Z 03008KT 11/03 A3043 RMK A01 T01130027  RH  055%=      5-min Rain = 0

Page generated in 0.1756 seconds.